﻿<?xml version="1.0" encoding="UTF-8"?>
<gpx version="v1.1.5" creator="iTravel Tech Inc. - http://www.itravel-tech.com" xmlns:xsi="http://www.w3.org/2001/XMLSchema-instance" xmlns="http://www.topografix.com/GPX/1/1" xsi:schemaLocation="http://www.topografix.com/GPX/1/1 http://www.topografix.com/GPX/1/1/gpx.xsd http://www.topografix.com/GPX/gpx_overlay/0/3 http://www.topografix.com/GPX/gpx_overlay/0/3/gpx_overlay.xsd http://www.topografix.com/GPX/gpx_modified/0/1 http://www.topografix.com/GPX/gpx_modified/0/1/gpx_modified.xsd">
<trk>
<name>Holux2011/10/13_18:56</name>
<trkseg>
<trkpt lat="44.430344" lon="34.105839">
<ele>-38.029816</ele>
<time>2011-10-13T15:56:40Z</time>
<desc>lat.=44.430344, lon.=34.105839, Alt.=-38.029816m. Speed=0.792000m/h.</desc>
<speed>0.220000</speed>
</trkpt>
<trkpt lat="44.430405" lon="34.105854">
<ele>-36.240753</ele>
<time>2011-10-13T15:56:46Z</time>
<desc>lat.=44.430405, lon.=34.105854, Alt.=-36.240753m. Speed=0.828000m/h.</desc>
<speed>0.230000</speed>
</trkpt>
<trkpt lat="44.430202" lon="34.106003">
<ele>71.219788</ele>
<time>2011-10-13T15:56:51Z</time>
<desc>lat.=44.430202, lon.=34.106003, Alt.=71.219788m. Speed=1.944000m/h.</desc>
<speed>0.540000</speed>
</trkpt>
<trkpt lat="44.430290" lon="34.106037">
<ele>71.713928</ele>
<time>2011-10-13T15:56:56Z</time>
<desc>lat.=44.430290, lon.=34.106037, Alt.=71.713928m. Speed=2.880000m/h.</desc>
<speed>0.800000</speed>
</trkpt>
<trkpt lat="44.430321" lon="34.106033">
<ele>70.637756</ele>
<time>2011-10-13T15:57:01Z</time>
<desc>lat.=44.430321, lon.=34.106033, Alt.=70.637756m. Speed=2.160000m/h.</desc>
<speed>0.600000</speed>
</trkpt>
<trkpt lat="44.430336" lon="34.106041">
<ele>70.883850</ele>
<time>2011-10-13T15:57:06Z</time>
<desc>lat.=44.430336, lon.=34.106041, Alt.=70.883850m. Speed=2.268000m/h.</desc>
<speed>0.630000</speed>
</trkpt>
<trkpt lat="44.430363" lon="34.106041">
<ele>68.086975</ele>
<time>2011-10-13T15:57:11Z</time>
<desc>lat.=44.430363, lon.=34.106041, Alt.=68.086975m. Speed=2.268000m/h.</desc>
<speed>0.630000</speed>
</trkpt>
<trkpt lat="44.430397" lon="34.106018">
<ele>66.975647</ele>
<time>2011-10-13T15:57:16Z</time>
<desc>lat.=44.430397, lon.=34.106018, Alt.=66.975647m. Speed=2.556000m/h.</desc>
<speed>0.710000</speed>
</trkpt>
<trkpt lat="44.430431" lon="34.105995">
<ele>67.129944</ele>
<time>2011-10-13T15:57:21Z</time>
<desc>lat.=44.430431, lon.=34.105995, Alt.=67.129944m. Speed=2.736000m/h.</desc>
<speed>0.760000</speed>
</trkpt>
<trkpt lat="44.430481" lon="34.105976">
<ele>67.001038</ele>
<time>2011-10-13T15:57:26Z</time>
<desc>lat.=44.430481, lon.=34.105976, Alt.=67.001038m. Speed=2.844000m/h.</desc>
<speed>0.790000</speed>
</trkpt>
<trkpt lat="44.430576" lon="34.105934">
<ele>66.413147</ele>
<time>2011-10-13T15:57:31Z</time>
<desc>lat.=44.430576, lon.=34.105934, Alt.=66.413147m. Speed=4.572000m/h.</desc>
<speed>1.270000</speed>
</trkpt>
<trkpt lat="44.430672" lon="34.105904">
<ele>66.766663</ele>
<time>2011-10-13T15:57:36Z</time>
<desc>lat.=44.430672, lon.=34.105904, Alt.=66.766663m. Speed=5.760000m/h.</desc>
<speed>1.600000</speed>
</trkpt>
<trkpt lat="44.430744" lon="34.105907">
<ele>67.208069</ele>
<time>2011-10-13T15:57:41Z</time>
<desc>lat.=44.430744, lon.=34.105907, Alt.=67.208069m. Speed=6.552000m/h.</desc>
<speed>1.820000</speed>
</trkpt>
<trkpt lat="44.430866" lon="34.105846">
<ele>66.803772</ele>
<time>2011-10-13T15:57:46Z</time>
<desc>lat.=44.430866, lon.=34.105846, Alt.=66.803772m. Speed=7.812000m/h.</desc>
<speed>2.170000</speed>
</trkpt>
<trkpt lat="44.430897" lon="34.105812">
<ele>67.262756</ele>
<time>2011-10-13T15:57:51Z</time>
<desc>lat.=44.430897, lon.=34.105812, Alt.=67.262756m. Speed=1.008000m/h.</desc>
<speed>0.280000</speed>
</trkpt>
<trkpt lat="44.430920" lon="34.105778">
<ele>67.752991</ele>
<time>2011-10-13T15:57:56Z</time>
<desc>lat.=44.430920, lon.=34.105778, Alt.=67.752991m. Speed=3.024000m/h.</desc>
<speed>0.840000</speed>
</trkpt>
<trkpt lat="44.430908" lon="34.105663">
<ele>68.735413</ele>
<time>2011-10-13T15:58:01Z</time>
<desc>lat.=44.430908, lon.=34.105663, Alt.=68.735413m. Speed=9.108000m/h.</desc>
<speed>2.530000</speed>
</trkpt>
<trkpt lat="44.430836" lon="34.105564">
<ele>70.145569</ele>
<time>2011-10-13T15:58:06Z</time>
<desc>lat.=44.430836, lon.=34.105564, Alt.=70.145569m. Speed=6.624000m/h.</desc>
<speed>1.840000</speed>
</trkpt>
<trkpt lat="44.430851" lon="34.105537">
<ele>71.254944</ele>
<time>2011-10-13T15:58:11Z</time>
<desc>lat.=44.430851, lon.=34.105537, Alt.=71.254944m. Speed=1.944000m/h.</desc>
<speed>0.540000</speed>
</trkpt>
<trkpt lat="44.430862" lon="34.105530">
<ele>71.465881</ele>
<time>2011-10-13T15:58:16Z</time>
<desc>lat.=44.430862, lon.=34.105530, Alt.=71.465881m. Speed=0.684000m/h.</desc>
<speed>0.190000</speed>
</trkpt>
<trkpt lat="44.430870" lon="34.105534">
<ele>71.678772</ele>
<time>2011-10-13T15:58:21Z</time>
<desc>lat.=44.430870, lon.=34.105534, Alt.=71.678772m. Speed=0.828000m/h.</desc>
<speed>0.230000</speed>
</trkpt>
<trkpt lat="44.430912" lon="34.105526">
<ele>71.844788</ele>
<time>2011-10-13T15:58:26Z</time>
<desc>lat.=44.430912, lon.=34.105526, Alt.=71.844788m. Speed=0.720000m/h.</desc>
<speed>0.200000</speed>
</trkpt>
<trkpt lat="44.430958" lon="34.105492">
<ele>72.100647</ele>
<time>2011-10-13T15:58:31Z</time>
<desc>lat.=44.430958, lon.=34.105492, Alt.=72.100647m. Speed=0.288000m/h.</desc>
<speed>0.080000</speed>
</trkpt>
<trkpt lat="44.430996" lon="34.105480">
<ele>71.979553</ele>
<time>2011-10-13T15:58:36Z</time>
<desc>lat.=44.430996, lon.=34.105480, Alt.=71.979553m. Speed=0.180000m/h.</desc>
<speed>0.050000</speed>
</trkpt>
<trkpt lat="44.431015" lon="34.105480">
<ele>72.030334</ele>
<time>2011-10-13T15:58:41Z</time>
<desc>lat.=44.431015, lon.=34.105480, Alt.=72.030334m. Speed=0.288000m/h.</desc>
<speed>0.080000</speed>
</trkpt>
<trkpt lat="44.431007" lon="34.105488">
<ele>72.377991</ele>
<time>2011-10-13T15:58:46Z</time>
<desc>lat.=44.431007, lon.=34.105488, Alt.=72.377991m. Speed=0.360000m/h.</desc>
<speed>0.100000</speed>
</trkpt>
<trkpt lat="44.430996" lon="34.105499">
<ele>72.641663</ele>
<time>2011-10-13T15:58:51Z</time>
<desc>lat.=44.430996, lon.=34.105499, Alt.=72.641663m. Speed=0.540000m/h.</desc>
<speed>0.150000</speed>
</trkpt>
<trkpt lat="44.430996" lon="34.105476">
<ele>72.305725</ele>
<time>2011-10-13T15:58:56Z</time>
<desc>lat.=44.430996, lon.=34.105476, Alt.=72.305725m. Speed=0.108000m/h.</desc>
<speed>0.030000</speed>
</trkpt>
<trkpt lat="44.431007" lon="34.105480">
<ele>72.919006</ele>
<time>2011-10-13T15:59:01Z</time>
<desc>lat.=44.431007, lon.=34.105480, Alt.=72.919006m. Speed=1.296000m/h.</desc>
<speed>0.360000</speed>
</trkpt>
<trkpt lat="44.431011" lon="34.105469">
<ele>73.256897</ele>
<time>2011-10-13T15:59:06Z</time>
<desc>lat.=44.431011, lon.=34.105469, Alt.=73.256897m. Speed=1.188000m/h.</desc>
<speed>0.330000</speed>
</trkpt>
<trkpt lat="44.431007" lon="34.105461">
<ele>73.264709</ele>
<time>2011-10-13T15:59:11Z</time>
<desc>lat.=44.431007, lon.=34.105461, Alt.=73.264709m. Speed=0.648000m/h.</desc>
<speed>0.180000</speed>
</trkpt>
<trkpt lat="44.431011" lon="34.105461">
<ele>73.391663</ele>
<time>2011-10-13T15:59:16Z</time>
<desc>lat.=44.431011, lon.=34.105461, Alt.=73.391663m. Speed=0.360000m/h.</desc>
<speed>0.100000</speed>
</trkpt>
<trkpt lat="44.431015" lon="34.105457">
<ele>73.504944</ele>
<time>2011-10-13T15:59:21Z</time>
<desc>lat.=44.431015, lon.=34.105457, Alt.=73.504944m. Speed=0.468000m/h.</desc>
<speed>0.130000</speed>
</trkpt>
<trkpt lat="44.431015" lon="34.105450">
<ele>73.602600</ele>
<time>2011-10-13T15:59:26Z</time>
<desc>lat.=44.431015, lon.=34.105450, Alt.=73.602600m. Speed=0.072000m/h.</desc>
<speed>0.020000</speed>
</trkpt>
<trkpt lat="44.431019" lon="34.105453">
<ele>73.661194</ele>
<time>2011-10-13T15:59:31Z</time>
<desc>lat.=44.431019, lon.=34.105453, Alt.=73.661194m. Speed=0.396000m/h.</desc>
<speed>0.110000</speed>
</trkpt>
<trkpt lat="44.431023" lon="34.105450">
<ele>73.721741</ele>
<time>2011-10-13T15:59:36Z</time>
<desc>lat.=44.431023, lon.=34.105450, Alt.=73.721741m. Speed=0.648000m/h.</desc>
<speed>0.180000</speed>
</trkpt>
<trkpt lat="44.431026" lon="34.105446">
<ele>73.774475</ele>
<time>2011-10-13T15:59:41Z</time>
<desc>lat.=44.431026, lon.=34.105446, Alt.=73.774475m. Speed=0.360000m/h.</desc>
<speed>0.100000</speed>
</trkpt>
<trkpt lat="44.431026" lon="34.105438">
<ele>73.833069</ele>
<time>2011-10-13T15:59:46Z</time>
<desc>lat.=44.431026, lon.=34.105438, Alt.=73.833069m. Speed=0.612000m/h.</desc>
<speed>0.170000</speed>
</trkpt>
<trkpt lat="44.431026" lon="34.105434">
<ele>73.895569</ele>
<time>2011-10-13T15:59:51Z</time>
<desc>lat.=44.431026, lon.=34.105434, Alt.=73.895569m. Speed=0.648000m/h.</desc>
<speed>0.180000</speed>
</trkpt>
<trkpt lat="44.431019" lon="34.105438">
<ele>73.950256</ele>
<time>2011-10-13T15:59:56Z</time>
<desc>lat.=44.431019, lon.=34.105438, Alt.=73.950256m. Speed=0.540000m/h.</desc>
<speed>0.150000</speed>
</trkpt>
<trkpt lat="44.431011" lon="34.105438">
<ele>74.020569</ele>
<time>2011-10-13T16:00:01Z</time>
<desc>lat.=44.431011, lon.=34.105438, Alt.=74.020569m. Speed=0.180000m/h.</desc>
<speed>0.050000</speed>
</trkpt>
<trkpt lat="44.431007" lon="34.105434">
<ele>74.079163</ele>
<time>2011-10-13T16:00:06Z</time>
<desc>lat.=44.431007, lon.=34.105434, Alt.=74.079163m. Speed=0.144000m/h.</desc>
<speed>0.040000</speed>
</trkpt>
<trkpt lat="44.431004" lon="34.105434">
<ele>74.057678</ele>
<time>2011-10-13T16:00:11Z</time>
<desc>lat.=44.431004, lon.=34.105434, Alt.=74.057678m. Speed=1.944000m/h.</desc>
<speed>0.540000</speed>
</trkpt>
<trkpt lat="44.430950" lon="34.105408">
<ele>74.126038</ele>
<time>2011-10-13T16:00:16Z</time>
<desc>lat.=44.430950, lon.=34.105408, Alt.=74.126038m. Speed=1.800000m/h.</desc>
<speed>0.500000</speed>
</trkpt>
<trkpt lat="44.430916" lon="34.105392">
<ele>74.118225</ele>
<time>2011-10-13T16:00:21Z</time>
<desc>lat.=44.430916, lon.=34.105392, Alt.=74.118225m. Speed=1.980000m/h.</desc>
<speed>0.550000</speed>
</trkpt>
<trkpt lat="44.430878" lon="34.105389">
<ele>74.200256</ele>
<time>2011-10-13T16:00:26Z</time>
<desc>lat.=44.430878, lon.=34.105389, Alt.=74.200256m. Speed=0.180000m/h.</desc>
<speed>0.050000</speed>
</trkpt>
<trkpt lat="44.430832" lon="34.105373">
<ele>74.417053</ele>
<time>2011-10-13T16:00:31Z</time>
<desc>lat.=44.430832, lon.=34.105373, Alt.=74.417053m. Speed=3.204000m/h.</desc>
<speed>0.890000</speed>
</trkpt>
<trkpt lat="44.430775" lon="34.105289">
<ele>74.848694</ele>
<time>2011-10-13T16:00:36Z</time>
<desc>lat.=44.430775, lon.=34.105289, Alt.=74.848694m. Speed=3.744000m/h.</desc>
<speed>1.040000</speed>
</trkpt>
<trkpt lat="44.430748" lon="34.105225">
<ele>75.116272</ele>
<time>2011-10-13T16:00:41Z</time>
<desc>lat.=44.430748, lon.=34.105225, Alt.=75.116272m. Speed=4.140000m/h.</desc>
<speed>1.150000</speed>
</trkpt>
<trkpt lat="44.430737" lon="34.105152">
<ele>75.292053</ele>
<time>2011-10-13T16:00:46Z</time>
<desc>lat.=44.430737, lon.=34.105152, Alt.=75.292053m. Speed=3.780000m/h.</desc>
<speed>1.050000</speed>
</trkpt>
<trkpt lat="44.430668" lon="34.105057">
<ele>73.299866</ele>
<time>2011-10-13T16:00:51Z</time>
<desc>lat.=44.430668, lon.=34.105057, Alt.=73.299866m. Speed=5.652000m/h.</desc>
<speed>1.570000</speed>
</trkpt>
<trkpt lat="44.430614" lon="34.105022">
<ele>72.549866</ele>
<time>2011-10-13T16:00:56Z</time>
<desc>lat.=44.430614, lon.=34.105022, Alt.=72.549866m. Speed=2.592000m/h.</desc>
<speed>0.720000</speed>
</trkpt>
<trkpt lat="44.430580" lon="34.105003">
<ele>73.098694</ele>
<time>2011-10-13T16:01:01Z</time>
<desc>lat.=44.430580, lon.=34.105003, Alt.=73.098694m. Speed=4.500000m/h.</desc>
<speed>1.250000</speed>
</trkpt>
<trkpt lat="44.430492" lon="34.104954">
<ele>74.368225</ele>
<time>2011-10-13T16:01:06Z</time>
<desc>lat.=44.430492, lon.=34.104954, Alt.=74.368225m. Speed=5.904000m/h.</desc>
<speed>1.640000</speed>
</trkpt>
<trkpt lat="44.430431" lon="34.104961">
<ele>75.438538</ele>
<time>2011-10-13T16:01:11Z</time>
<desc>lat.=44.430431, lon.=34.104961, Alt.=75.438538m. Speed=6.840000m/h.</desc>
<speed>1.900000</speed>
</trkpt>
<trkpt lat="44.430405" lon="34.104958">
<ele>75.809631</ele>
<time>2011-10-13T16:01:16Z</time>
<desc>lat.=44.430405, lon.=34.104958, Alt.=75.809631m. Speed=2.952000m/h.</desc>
<speed>0.820000</speed>
</trkpt>
<trkpt lat="44.430344" lon="34.104942">
<ele>76.893616</ele>
<time>2011-10-13T16:01:21Z</time>
<desc>lat.=44.430344, lon.=34.104942, Alt.=76.893616m. Speed=5.832000m/h.</desc>
<speed>1.620000</speed>
</trkpt>
<trkpt lat="44.430279" lon="34.104950">
<ele>78.018616</ele>
<time>2011-10-13T16:01:26Z</time>
<desc>lat.=44.430279, lon.=34.104950, Alt.=78.018616m. Speed=5.832000m/h.</desc>
<speed>1.620000</speed>
</trkpt>
<trkpt lat="44.430210" lon="34.104969">
<ele>79.020569</ele>
<time>2011-10-13T16:01:31Z</time>
<desc>lat.=44.430210, lon.=34.104969, Alt.=79.020569m. Speed=4.464000m/h.</desc>
<speed>1.240000</speed>
</trkpt>
<trkpt lat="44.430164" lon="34.105007">
<ele>80.221741</ele>
<time>2011-10-13T16:01:36Z</time>
<desc>lat.=44.430164, lon.=34.105007, Alt.=80.221741m. Speed=4.284000m/h.</desc>
<speed>1.190000</speed>
</trkpt>
<trkpt lat="44.430107" lon="34.105164">
<ele>78.094788</ele>
<time>2011-10-13T16:01:41Z</time>
<desc>lat.=44.430107, lon.=34.105164, Alt.=78.094788m. Speed=5.148000m/h.</desc>
<speed>1.430000</speed>
</trkpt>
<trkpt lat="44.430065" lon="34.105221">
<ele>76.489319</ele>
<time>2011-10-13T16:01:46Z</time>
<desc>lat.=44.430065, lon.=34.105221, Alt.=76.489319m. Speed=5.940000m/h.</desc>
<speed>1.650000</speed>
</trkpt>
<trkpt lat="44.430031" lon="34.105286">
<ele>76.803772</ele>
<time>2011-10-13T16:01:51Z</time>
<desc>lat.=44.430031, lon.=34.105286, Alt.=76.803772m. Speed=7.848000m/h.</desc>
<speed>2.180000</speed>
</trkpt>
<trkpt lat="44.429943" lon="34.105335">
<ele>76.188538</ele>
<time>2011-10-13T16:01:56Z</time>
<desc>lat.=44.429943, lon.=34.105335, Alt.=76.188538m. Speed=7.092000m/h.</desc>
<speed>1.970000</speed>
</trkpt>
<trkpt lat="44.429893" lon="34.105328">
<ele>76.602600</ele>
<time>2011-10-13T16:02:01Z</time>
<desc>lat.=44.429893, lon.=34.105328, Alt.=76.602600m. Speed=5.400000m/h.</desc>
<speed>1.500000</speed>
</trkpt>
<trkpt lat="44.429840" lon="34.105289">
<ele>77.561584</ele>
<time>2011-10-13T16:02:06Z</time>
<desc>lat.=44.429840, lon.=34.105289, Alt.=77.561584m. Speed=6.480000m/h.</desc>
<speed>1.800000</speed>
</trkpt>
<trkpt lat="44.429787" lon="34.105278">
<ele>77.522522</ele>
<time>2011-10-13T16:02:11Z</time>
<desc>lat.=44.429787, lon.=34.105278, Alt.=77.522522m. Speed=4.320000m/h.</desc>
<speed>1.200000</speed>
</trkpt>
<trkpt lat="44.429737" lon="34.105247">
<ele>78.840881</ele>
<time>2011-10-13T16:02:16Z</time>
<desc>lat.=44.429737, lon.=34.105247, Alt.=78.840881m. Speed=6.048000m/h.</desc>
<speed>1.680000</speed>
</trkpt>
<trkpt lat="44.429665" lon="34.105225">
<ele>80.206116</ele>
<time>2011-10-13T16:02:21Z</time>
<desc>lat.=44.429665, lon.=34.105225, Alt.=80.206116m. Speed=5.724000m/h.</desc>
<speed>1.590000</speed>
</trkpt>
<trkpt lat="44.429565" lon="34.105206">
<ele>81.493225</ele>
<time>2011-10-13T16:02:26Z</time>
<desc>lat.=44.429565, lon.=34.105206, Alt.=81.493225m. Speed=5.904000m/h.</desc>
<speed>1.640000</speed>
</trkpt>
<trkpt lat="44.429501" lon="34.105156">
<ele>82.290100</ele>
<time>2011-10-13T16:02:31Z</time>
<desc>lat.=44.429501, lon.=34.105156, Alt.=82.290100m. Speed=5.112000m/h.</desc>
<speed>1.420000</speed>
</trkpt>
<trkpt lat="44.429451" lon="34.105106">
<ele>84.526428</ele>
<time>2011-10-13T16:02:36Z</time>
<desc>lat.=44.429451, lon.=34.105106, Alt.=84.526428m. Speed=3.960000m/h.</desc>
<speed>1.100000</speed>
</trkpt>
<trkpt lat="44.429398" lon="34.105072">
<ele>85.303772</ele>
<time>2011-10-13T16:02:41Z</time>
<desc>lat.=44.429398, lon.=34.105072, Alt.=85.303772m. Speed=3.852000m/h.</desc>
<speed>1.070000</speed>
</trkpt>
<trkpt lat="44.429325" lon="34.105038">
<ele>85.399475</ele>
<time>2011-10-13T16:02:46Z</time>
<desc>lat.=44.429325, lon.=34.105038, Alt.=85.399475m. Speed=4.500000m/h.</desc>
<speed>1.250000</speed>
</trkpt>
<trkpt lat="44.429260" lon="34.104980">
<ele>86.379944</ele>
<time>2011-10-13T16:02:51Z</time>
<desc>lat.=44.429260, lon.=34.104980, Alt.=86.379944m. Speed=3.852000m/h.</desc>
<speed>1.070000</speed>
</trkpt>
<trkpt lat="44.429203" lon="34.104935">
<ele>86.747131</ele>
<time>2011-10-13T16:02:56Z</time>
<desc>lat.=44.429203, lon.=34.104935, Alt.=86.747131m. Speed=3.672000m/h.</desc>
<speed>1.020000</speed>
</trkpt>
<trkpt lat="44.429138" lon="34.104885">
<ele>88.223694</ele>
<time>2011-10-13T16:03:01Z</time>
<desc>lat.=44.429138, lon.=34.104885, Alt.=88.223694m. Speed=2.808000m/h.</desc>
<speed>0.780000</speed>
</trkpt>
<trkpt lat="44.429089" lon="34.104733">
<ele>78.713928</ele>
<time>2011-10-13T16:03:06Z</time>
<desc>lat.=44.429089, lon.=34.104733, Alt.=78.713928m. Speed=4.356000m/h.</desc>
<speed>1.210000</speed>
</trkpt>
<trkpt lat="44.429058" lon="34.104675">
<ele>80.126038</ele>
<time>2011-10-13T16:03:11Z</time>
<desc>lat.=44.429058, lon.=34.104675, Alt.=80.126038m. Speed=3.600000m/h.</desc>
<speed>1.000000</speed>
</trkpt>
<trkpt lat="44.428997" lon="34.104595">
<ele>77.020569</ele>
<time>2011-10-13T16:03:16Z</time>
<desc>lat.=44.428997, lon.=34.104595, Alt.=77.020569m. Speed=5.760000m/h.</desc>
<speed>1.600000</speed>
</trkpt>
<trkpt lat="44.428967" lon="34.104523">
<ele>76.174866</ele>
<time>2011-10-13T16:03:21Z</time>
<desc>lat.=44.428967, lon.=34.104523, Alt.=76.174866m. Speed=4.032000m/h.</desc>
<speed>1.120000</speed>
</trkpt>
<trkpt lat="44.428917" lon="34.104420">
<ele>73.268616</ele>
<time>2011-10-13T16:03:26Z</time>
<desc>lat.=44.428917, lon.=34.104420, Alt.=73.268616m. Speed=2.268000m/h.</desc>
<speed>0.630000</speed>
</trkpt>
<trkpt lat="44.428871" lon="34.104347">
<ele>71.819397</ele>
<time>2011-10-13T16:03:31Z</time>
<desc>lat.=44.428871, lon.=34.104347, Alt.=71.819397m. Speed=4.428000m/h.</desc>
<speed>1.230000</speed>
</trkpt>
<trkpt lat="44.428848" lon="34.104244">
<ele>71.051819</ele>
<time>2011-10-13T16:03:36Z</time>
<desc>lat.=44.428848, lon.=34.104244, Alt.=71.051819m. Speed=3.780000m/h.</desc>
<speed>1.050000</speed>
</trkpt>
<trkpt lat="44.428818" lon="34.104156">
<ele>72.553772</ele>
<time>2011-10-13T16:03:41Z</time>
<desc>lat.=44.428818, lon.=34.104156, Alt.=72.553772m. Speed=3.780000m/h.</desc>
<speed>1.050000</speed>
</trkpt>
<trkpt lat="44.428802" lon="34.104057">
<ele>71.690491</ele>
<time>2011-10-13T16:03:46Z</time>
<desc>lat.=44.428802, lon.=34.104057, Alt.=71.690491m. Speed=3.492000m/h.</desc>
<speed>0.970000</speed>
</trkpt>
<trkpt lat="44.428753" lon="34.103970">
<ele>71.137756</ele>
<time>2011-10-13T16:03:51Z</time>
<desc>lat.=44.428753, lon.=34.103970, Alt.=71.137756m. Speed=5.004000m/h.</desc>
<speed>1.390000</speed>
</trkpt>
<trkpt lat="44.428768" lon="34.103897">
<ele>72.631897</ele>
<time>2011-10-13T16:03:56Z</time>
<desc>lat.=44.428768, lon.=34.103897, Alt.=72.631897m. Speed=1.980000m/h.</desc>
<speed>0.550000</speed>
</trkpt>
<trkpt lat="44.428776" lon="34.103760">
<ele>71.372131</ele>
<time>2011-10-13T16:04:01Z</time>
<desc>lat.=44.428776, lon.=34.103760, Alt.=71.372131m. Speed=3.384000m/h.</desc>
<speed>0.940000</speed>
</trkpt>
<trkpt lat="44.428780" lon="34.103653">
<ele>69.952209</ele>
<time>2011-10-13T16:04:06Z</time>
<desc>lat.=44.428780, lon.=34.103653, Alt.=69.952209m. Speed=5.400000m/h.</desc>
<speed>1.500000</speed>
</trkpt>
<trkpt lat="44.428780" lon="34.103542">
<ele>68.813538</ele>
<time>2011-10-13T16:04:11Z</time>
<desc>lat.=44.428780, lon.=34.103542, Alt.=68.813538m. Speed=4.680000m/h.</desc>
<speed>1.300000</speed>
</trkpt>
<trkpt lat="44.428795" lon="34.103424">
<ele>67.217834</ele>
<time>2011-10-13T16:04:16Z</time>
<desc>lat.=44.428795, lon.=34.103424, Alt.=67.217834m. Speed=4.716000m/h.</desc>
<speed>1.310000</speed>
</trkpt>
<trkpt lat="44.428795" lon="34.103355">
<ele>68.276428</ele>
<time>2011-10-13T16:04:21Z</time>
<desc>lat.=44.428795, lon.=34.103355, Alt.=68.276428m. Speed=4.896000m/h.</desc>
<speed>1.360000</speed>
</trkpt>
<trkpt lat="44.428806" lon="34.103298">
<ele>69.514709</ele>
<time>2011-10-13T16:04:26Z</time>
<desc>lat.=44.428806, lon.=34.103298, Alt.=69.514709m. Speed=1.440000m/h.</desc>
<speed>0.400000</speed>
</trkpt>
<trkpt lat="44.428795" lon="34.103245">
<ele>69.631897</ele>
<time>2011-10-13T16:04:31Z</time>
<desc>lat.=44.428795, lon.=34.103245, Alt.=69.631897m. Speed=3.348000m/h.</desc>
<speed>0.930000</speed>
</trkpt>
<trkpt lat="44.428791" lon="34.103176">
<ele>70.383850</ele>
<time>2011-10-13T16:04:36Z</time>
<desc>lat.=44.428791, lon.=34.103176, Alt.=70.383850m. Speed=2.160000m/h.</desc>
<speed>0.600000</speed>
</trkpt>
<trkpt lat="44.428772" lon="34.103088">
<ele>69.704163</ele>
<time>2011-10-13T16:04:41Z</time>
<desc>lat.=44.428772, lon.=34.103088, Alt.=69.704163m. Speed=4.608000m/h.</desc>
<speed>1.280000</speed>
</trkpt>
<trkpt lat="44.428802" lon="34.103043">
<ele>69.960022</ele>
<time>2011-10-13T16:04:46Z</time>
<desc>lat.=44.428802, lon.=34.103043, Alt.=69.960022m. Speed=3.744000m/h.</desc>
<speed>1.040000</speed>
</trkpt>
<trkpt lat="44.428848" lon="34.102993">
<ele>70.085022</ele>
<time>2011-10-13T16:04:51Z</time>
<desc>lat.=44.428848, lon.=34.102993, Alt.=70.085022m. Speed=5.364000m/h.</desc>
<speed>1.490000</speed>
</trkpt>
<trkpt lat="44.428871" lon="34.102913">
<ele>70.772522</ele>
<time>2011-10-13T16:04:56Z</time>
<desc>lat.=44.428871, lon.=34.102913, Alt.=70.772522m. Speed=6.840000m/h.</desc>
<speed>1.900000</speed>
</trkpt>
<trkpt lat="44.428909" lon="34.102821">
<ele>69.012756</ele>
<time>2011-10-13T16:05:01Z</time>
<desc>lat.=44.428909, lon.=34.102821, Alt.=69.012756m. Speed=6.660000m/h.</desc>
<speed>1.850000</speed>
</trkpt>
<trkpt lat="44.428951" lon="34.102722">
<ele>69.899475</ele>
<time>2011-10-13T16:05:06Z</time>
<desc>lat.=44.428951, lon.=34.102722, Alt.=69.899475m. Speed=4.320000m/h.</desc>
<speed>1.200000</speed>
</trkpt>
<trkpt lat="44.428982" lon="34.102612">
<ele>69.739319</ele>
<time>2011-10-13T16:05:11Z</time>
<desc>lat.=44.428982, lon.=34.102612, Alt.=69.739319m. Speed=6.624000m/h.</desc>
<speed>1.840000</speed>
</trkpt>
<trkpt lat="44.429008" lon="34.102539">
<ele>70.868225</ele>
<time>2011-10-13T16:05:16Z</time>
<desc>lat.=44.429008, lon.=34.102539, Alt.=70.868225m. Speed=6.696000m/h.</desc>
<speed>1.860000</speed>
</trkpt>
<trkpt lat="44.429035" lon="34.102478">
<ele>72.086975</ele>
<time>2011-10-13T16:05:21Z</time>
<desc>lat.=44.429035, lon.=34.102478, Alt.=72.086975m. Speed=4.104000m/h.</desc>
<speed>1.140000</speed>
</trkpt>
<trkpt lat="44.429096" lon="34.102402">
<ele>69.723694</ele>
<time>2011-10-13T16:05:26Z</time>
<desc>lat.=44.429096, lon.=34.102402, Alt.=69.723694m. Speed=5.004000m/h.</desc>
<speed>1.390000</speed>
</trkpt>
<trkpt lat="44.429115" lon="34.102367">
<ele>70.071350</ele>
<time>2011-10-13T16:05:31Z</time>
<desc>lat.=44.429115, lon.=34.102367, Alt.=70.071350m. Speed=1.440000m/h.</desc>
<speed>0.400000</speed>
</trkpt>
<trkpt lat="44.429150" lon="34.102333">
<ele>70.036194</ele>
<time>2011-10-13T16:05:36Z</time>
<desc>lat.=44.429150, lon.=34.102333, Alt.=70.036194m. Speed=3.024000m/h.</desc>
<speed>0.840000</speed>
</trkpt>
<trkpt lat="44.429176" lon="34.102280">
<ele>69.528381</ele>
<time>2011-10-13T16:05:41Z</time>
<desc>lat.=44.429176, lon.=34.102280, Alt.=69.528381m. Speed=3.960000m/h.</desc>
<speed>1.100000</speed>
</trkpt>
<trkpt lat="44.429253" lon="34.102127">
<ele>68.149475</ele>
<time>2011-10-13T16:05:46Z</time>
<desc>lat.=44.429253, lon.=34.102127, Alt.=68.149475m. Speed=4.212000m/h.</desc>
<speed>1.170000</speed>
</trkpt>
<trkpt lat="44.429314" lon="34.102047">
<ele>68.846741</ele>
<time>2011-10-13T16:05:51Z</time>
<desc>lat.=44.429314, lon.=34.102047, Alt.=68.846741m. Speed=4.824000m/h.</desc>
<speed>1.340000</speed>
</trkpt>
<trkpt lat="44.429379" lon="34.101990">
<ele>70.649475</ele>
<time>2011-10-13T16:05:56Z</time>
<desc>lat.=44.429379, lon.=34.101990, Alt.=70.649475m. Speed=3.528000m/h.</desc>
<speed>0.980000</speed>
</trkpt>
<trkpt lat="44.429436" lon="34.101913">
<ele>71.594788</ele>
<time>2011-10-13T16:06:01Z</time>
<desc>lat.=44.429436, lon.=34.101913, Alt.=71.594788m. Speed=5.292000m/h.</desc>
<speed>1.470000</speed>
</trkpt>
<trkpt lat="44.429504" lon="34.101852">
<ele>71.903381</ele>
<time>2011-10-13T16:06:06Z</time>
<desc>lat.=44.429504, lon.=34.101852, Alt.=71.903381m. Speed=2.304000m/h.</desc>
<speed>0.640000</speed>
</trkpt>
<trkpt lat="44.429554" lon="34.101814">
<ele>72.643616</ele>
<time>2011-10-13T16:06:11Z</time>
<desc>lat.=44.429554, lon.=34.101814, Alt.=72.643616m. Speed=4.752000m/h.</desc>
<speed>1.320000</speed>
</trkpt>
<trkpt lat="44.429615" lon="34.101795">
<ele>70.454163</ele>
<time>2011-10-13T16:06:16Z</time>
<desc>lat.=44.429615, lon.=34.101795, Alt.=70.454163m. Speed=4.104000m/h.</desc>
<speed>1.140000</speed>
</trkpt>
<trkpt lat="44.429672" lon="34.101749">
<ele>70.897522</ele>
<time>2011-10-13T16:06:21Z</time>
<desc>lat.=44.429672, lon.=34.101749, Alt.=70.897522m. Speed=3.312000m/h.</desc>
<speed>0.920000</speed>
</trkpt>
<trkpt lat="44.429710" lon="34.101662">
<ele>70.842834</ele>
<time>2011-10-13T16:06:26Z</time>
<desc>lat.=44.429710, lon.=34.101662, Alt.=70.842834m. Speed=3.276000m/h.</desc>
<speed>0.910000</speed>
</trkpt>
<trkpt lat="44.429749" lon="34.101601">
<ele>72.049866</ele>
<time>2011-10-13T16:06:31Z</time>
<desc>lat.=44.429749, lon.=34.101601, Alt.=72.049866m. Speed=4.248000m/h.</desc>
<speed>1.180000</speed>
</trkpt>
<trkpt lat="44.429821" lon="34.101467">
<ele>72.040100</ele>
<time>2011-10-13T16:06:36Z</time>
<desc>lat.=44.429821, lon.=34.101467, Alt.=72.040100m. Speed=6.480000m/h.</desc>
<speed>1.800000</speed>
</trkpt>
<trkpt lat="44.429871" lon="34.101334">
<ele>73.346741</ele>
<time>2011-10-13T16:06:41Z</time>
<desc>lat.=44.429871, lon.=34.101334, Alt.=73.346741m. Speed=6.048000m/h.</desc>
<speed>1.680000</speed>
</trkpt>
<trkpt lat="44.429909" lon="34.101246">
<ele>72.409241</ele>
<time>2011-10-13T16:06:46Z</time>
<desc>lat.=44.429909, lon.=34.101246, Alt.=72.409241m. Speed=5.796000m/h.</desc>
<speed>1.610000</speed>
</trkpt>
<trkpt lat="44.429935" lon="34.101177">
<ele>70.934631</ele>
<time>2011-10-13T16:06:51Z</time>
<desc>lat.=44.429935, lon.=34.101177, Alt.=70.934631m. Speed=3.168000m/h.</desc>
<speed>0.880000</speed>
</trkpt>
<trkpt lat="44.429955" lon="34.101112">
<ele>72.233459</ele>
<time>2011-10-13T16:06:56Z</time>
<desc>lat.=44.429955, lon.=34.101112, Alt.=72.233459m. Speed=4.680000m/h.</desc>
<speed>1.300000</speed>
</trkpt>
<trkpt lat="44.429977" lon="34.101055">
<ele>73.661194</ele>
<time>2011-10-13T16:07:01Z</time>
<desc>lat.=44.429977, lon.=34.101055, Alt.=73.661194m. Speed=4.212000m/h.</desc>
<speed>1.170000</speed>
</trkpt>
<trkpt lat="44.429977" lon="34.100967">
<ele>75.846741</ele>
<time>2011-10-13T16:07:06Z</time>
<desc>lat.=44.429977, lon.=34.100967, Alt.=75.846741m. Speed=4.284000m/h.</desc>
<speed>1.190000</speed>
</trkpt>
<trkpt lat="44.430012" lon="34.100868">
<ele>77.833069</ele>
<time>2011-10-13T16:07:11Z</time>
<desc>lat.=44.430012, lon.=34.100868, Alt.=77.833069m. Speed=5.148000m/h.</desc>
<speed>1.430000</speed>
</trkpt>
<trkpt lat="44.430012" lon="34.100769">
<ele>77.198303</ele>
<time>2011-10-13T16:07:16Z</time>
<desc>lat.=44.430012, lon.=34.100769, Alt.=77.198303m. Speed=6.516000m/h.</desc>
<speed>1.810000</speed>
</trkpt>
<trkpt lat="44.430038" lon="34.100677">
<ele>79.038147</ele>
<time>2011-10-13T16:07:21Z</time>
<desc>lat.=44.430038, lon.=34.100677, Alt.=79.038147m. Speed=4.392000m/h.</desc>
<speed>1.220000</speed>
</trkpt>
<trkpt lat="44.430069" lon="34.100616">
<ele>80.942444</ele>
<time>2011-10-13T16:07:26Z</time>
<desc>lat.=44.430069, lon.=34.100616, Alt.=80.942444m. Speed=5.508000m/h.</desc>
<speed>1.530000</speed>
</trkpt>
<trkpt lat="44.430084" lon="34.100533">
<ele>82.737366</ele>
<time>2011-10-13T16:07:31Z</time>
<desc>lat.=44.430084, lon.=34.100533, Alt.=82.737366m. Speed=3.600000m/h.</desc>
<speed>1.000000</speed>
</trkpt>
<trkpt lat="44.430096" lon="34.100418">
<ele>85.028381</ele>
<time>2011-10-13T16:07:36Z</time>
<desc>lat.=44.430096, lon.=34.100418, Alt.=85.028381m. Speed=2.880000m/h.</desc>
<speed>0.800000</speed>
</trkpt>
<trkpt lat="44.430111" lon="34.100319">
<ele>86.844788</ele>
<time>2011-10-13T16:07:41Z</time>
<desc>lat.=44.430111, lon.=34.100319, Alt.=86.844788m. Speed=2.772000m/h.</desc>
<speed>0.770000</speed>
</trkpt>
<trkpt lat="44.430119" lon="34.100224">
<ele>82.229553</ele>
<time>2011-10-13T16:07:46Z</time>
<desc>lat.=44.430119, lon.=34.100224, Alt.=82.229553m. Speed=3.168000m/h.</desc>
<speed>0.880000</speed>
</trkpt>
<trkpt lat="44.430141" lon="34.100143">
<ele>82.440491</ele>
<time>2011-10-13T16:07:51Z</time>
<desc>lat.=44.430141, lon.=34.100143, Alt.=82.440491m. Speed=1.260000m/h.</desc>
<speed>0.350000</speed>
</trkpt>
<trkpt lat="44.430164" lon="34.100056">
<ele>76.409241</ele>
<time>2011-10-13T16:07:56Z</time>
<desc>lat.=44.430164, lon.=34.100056, Alt.=76.409241m. Speed=1.440000m/h.</desc>
<speed>0.400000</speed>
</trkpt>
<trkpt lat="44.430191" lon="34.100044">
<ele>76.594788</ele>
<time>2011-10-13T16:08:01Z</time>
<desc>lat.=44.430191, lon.=34.100044, Alt.=76.594788m. Speed=1.584000m/h.</desc>
<speed>0.440000</speed>
</trkpt>
<trkpt lat="44.430214" lon="34.100006">
<ele>73.899475</ele>
<time>2011-10-13T16:08:06Z</time>
<desc>lat.=44.430214, lon.=34.100006, Alt.=73.899475m. Speed=2.592000m/h.</desc>
<speed>0.720000</speed>
</trkpt>
<trkpt lat="44.430210" lon="34.099995">
<ele>74.602600</ele>
<time>2011-10-13T16:08:11Z</time>
<desc>lat.=44.430210, lon.=34.099995, Alt.=74.602600m. Speed=1.332000m/h.</desc>
<speed>0.370000</speed>
</trkpt>
<trkpt lat="44.430237" lon="34.099957">
<ele>74.858459</ele>
<time>2011-10-13T16:08:16Z</time>
<desc>lat.=44.430237, lon.=34.099957, Alt.=74.858459m. Speed=3.348000m/h.</desc>
<speed>0.930000</speed>
</trkpt>
<trkpt lat="44.430275" lon="34.099934">
<ele>72.141663</ele>
<time>2011-10-13T16:08:21Z</time>
<desc>lat.=44.430275, lon.=34.099934, Alt.=72.141663m. Speed=0.972000m/h.</desc>
<speed>0.270000</speed>
</trkpt>
<trkpt lat="44.430367" lon="34.099834">
<ele>65.624084</ele>
<time>2011-10-13T16:08:26Z</time>
<desc>lat.=44.430367, lon.=34.099834, Alt.=65.624084m. Speed=1.008000m/h.</desc>
<speed>0.280000</speed>
</trkpt>
<trkpt lat="44.430401" lon="34.099804">
<ele>61.254425</ele>
<time>2011-10-13T16:08:31Z</time>
<desc>lat.=44.430401, lon.=34.099804, Alt.=61.254425m. Speed=1.152000m/h.</desc>
<speed>0.320000</speed>
</trkpt>
<trkpt lat="44.430378" lon="34.099785">
<ele>58.480988</ele>
<time>2011-10-13T16:08:36Z</time>
<desc>lat.=44.430378, lon.=34.099785, Alt.=58.480988m. Speed=2.772000m/h.</desc>
<speed>0.770000</speed>
</trkpt>
<trkpt lat="44.430363" lon="34.099751">
<ele>57.444855</ele>
<time>2011-10-13T16:08:41Z</time>
<desc>lat.=44.430363, lon.=34.099751, Alt.=57.444855m. Speed=1.620000m/h.</desc>
<speed>0.450000</speed>
</trkpt>
<trkpt lat="44.430298" lon="34.099724">
<ele>53.565948</ele>
<time>2011-10-13T16:08:46Z</time>
<desc>lat.=44.430298, lon.=34.099724, Alt.=53.565948m. Speed=7.236000m/h.</desc>
<speed>2.010000</speed>
</trkpt>
<trkpt lat="44.430248" lon="34.099785">
<ele>50.237823</ele>
<time>2011-10-13T16:08:51Z</time>
<desc>lat.=44.430248, lon.=34.099785, Alt.=50.237823m. Speed=8.352000m/h.</desc>
<speed>2.320000</speed>
</trkpt>
<trkpt lat="44.430206" lon="34.099670">
<ele>50.445831</ele>
<time>2011-10-13T16:08:56Z</time>
<desc>lat.=44.430206, lon.=34.099670, Alt.=50.445831m. Speed=9.216000m/h.</desc>
<speed>2.560000</speed>
</trkpt>
<trkpt lat="44.430191" lon="34.099472">
<ele>51.249542</ele>
<time>2011-10-13T16:09:01Z</time>
<desc>lat.=44.430191, lon.=34.099472, Alt.=51.249542m. Speed=10.008000m/h.</desc>
<speed>2.780000</speed>
</trkpt>
<trkpt lat="44.430176" lon="34.099350">
<ele>51.856964</ele>
<time>2011-10-13T16:09:06Z</time>
<desc>lat.=44.430176, lon.=34.099350, Alt.=51.856964m. Speed=3.960000m/h.</desc>
<speed>1.100000</speed>
</trkpt>
<trkpt lat="44.430183" lon="34.099304">
<ele>51.540558</ele>
<time>2011-10-13T16:09:11Z</time>
<desc>lat.=44.430183, lon.=34.099304, Alt.=51.540558m. Speed=1.548000m/h.</desc>
<speed>0.430000</speed>
</trkpt>
<trkpt lat="44.430187" lon="34.099316">
<ele>50.267120</ele>
<time>2011-10-13T16:09:16Z</time>
<desc>lat.=44.430187, lon.=34.099316, Alt.=50.267120m. Speed=3.348000m/h.</desc>
<speed>0.930000</speed>
</trkpt>
<trkpt lat="44.430225" lon="34.099373">
<ele>50.426300</ele>
<time>2011-10-13T16:09:21Z</time>
<desc>lat.=44.430225, lon.=34.099373, Alt.=50.426300m. Speed=4.572000m/h.</desc>
<speed>1.270000</speed>
</trkpt>
<trkpt lat="44.430233" lon="34.099430">
<ele>49.764191</ele>
<time>2011-10-13T16:09:26Z</time>
<desc>lat.=44.430233, lon.=34.099430, Alt.=49.764191m. Speed=2.196000m/h.</desc>
<speed>0.610000</speed>
</trkpt>
<trkpt lat="44.430229" lon="34.099445">
<ele>48.012238</ele>
<time>2011-10-13T16:09:31Z</time>
<desc>lat.=44.430229, lon.=34.099445, Alt.=48.012238m. Speed=0.072000m/h.</desc>
<speed>0.020000</speed>
</trkpt>
<trkpt lat="44.430225" lon="34.099411">
<ele>47.853058</ele>
<time>2011-10-13T16:09:36Z</time>
<desc>lat.=44.430225, lon.=34.099411, Alt.=47.853058m. Speed=3.924000m/h.</desc>
<speed>1.090000</speed>
</trkpt>
<trkpt lat="44.430206" lon="34.099380">
<ele>47.087433</ele>
<time>2011-10-13T16:09:41Z</time>
<desc>lat.=44.430206, lon.=34.099380, Alt.=47.087433m. Speed=3.564000m/h.</desc>
<speed>0.990000</speed>
</trkpt>
<trkpt lat="44.430202" lon="34.099380">
<ele>46.837433</ele>
<time>2011-10-13T16:09:46Z</time>
<desc>lat.=44.430202, lon.=34.099380, Alt.=46.837433m. Speed=0.900000m/h.</desc>
<speed>0.250000</speed>
</trkpt>
<trkpt lat="44.430202" lon="34.099316">
<ele>46.547394</ele>
<time>2011-10-13T16:09:51Z</time>
<desc>lat.=44.430202, lon.=34.099316, Alt.=46.547394m. Speed=6.300000m/h.</desc>
<speed>1.750000</speed>
</trkpt>
<trkpt lat="44.430195" lon="34.099174">
<ele>46.948761</ele>
<time>2011-10-13T16:09:56Z</time>
<desc>lat.=44.430195, lon.=34.099174, Alt.=46.948761m. Speed=7.992000m/h.</desc>
<speed>2.220000</speed>
</trkpt>
<trkpt lat="44.430180" lon="34.099049">
<ele>47.785675</ele>
<time>2011-10-13T16:10:01Z</time>
<desc>lat.=44.430180, lon.=34.099049, Alt.=47.785675m. Speed=5.364000m/h.</desc>
<speed>1.490000</speed>
</trkpt>
<trkpt lat="44.430183" lon="34.098961">
<ele>48.698761</ele>
<time>2011-10-13T16:10:06Z</time>
<desc>lat.=44.430183, lon.=34.098961, Alt.=48.698761m. Speed=4.716000m/h.</desc>
<speed>1.310000</speed>
</trkpt>
<trkpt lat="44.430176" lon="34.098850">
<ele>50.166534</ele>
<time>2011-10-13T16:10:11Z</time>
<desc>lat.=44.430176, lon.=34.098850, Alt.=50.166534m. Speed=4.572000m/h.</desc>
<speed>1.270000</speed>
</trkpt>
<trkpt lat="44.430164" lon="34.098816">
<ele>51.948761</ele>
<time>2011-10-13T16:10:16Z</time>
<desc>lat.=44.430164, lon.=34.098816, Alt.=51.948761m. Speed=4.932000m/h.</desc>
<speed>1.370000</speed>
</trkpt>
<trkpt lat="44.430157" lon="34.098736">
<ele>53.532745</ele>
<time>2011-10-13T16:10:21Z</time>
<desc>lat.=44.430157, lon.=34.098736, Alt.=53.532745m. Speed=3.708000m/h.</desc>
<speed>1.030000</speed>
</trkpt>
<trkpt lat="44.430153" lon="34.098679">
<ele>54.892120</ele>
<time>2011-10-13T16:10:26Z</time>
<desc>lat.=44.430153, lon.=34.098679, Alt.=54.892120m. Speed=2.304000m/h.</desc>
<speed>0.640000</speed>
</trkpt>
<trkpt lat="44.430153" lon="34.098595">
<ele>56.312042</ele>
<time>2011-10-13T16:10:31Z</time>
<desc>lat.=44.430153, lon.=34.098595, Alt.=56.312042m. Speed=3.744000m/h.</desc>
<speed>1.040000</speed>
</trkpt>
<trkpt lat="44.430138" lon="34.098541">
<ele>57.552277</ele>
<time>2011-10-13T16:10:36Z</time>
<desc>lat.=44.430138, lon.=34.098541, Alt.=57.552277m. Speed=0.864000m/h.</desc>
<speed>0.240000</speed>
</trkpt>
<trkpt lat="44.430172" lon="34.098507">
<ele>56.907745</ele>
<time>2011-10-13T16:10:41Z</time>
<desc>lat.=44.430172, lon.=34.098507, Alt.=56.907745m. Speed=4.248000m/h.</desc>
<speed>1.180000</speed>
</trkpt>
<trkpt lat="44.430191" lon="34.098392">
<ele>54.883331</ele>
<time>2011-10-13T16:10:46Z</time>
<desc>lat.=44.430191, lon.=34.098392, Alt.=54.883331m. Speed=4.572000m/h.</desc>
<speed>1.270000</speed>
</trkpt>
<trkpt lat="44.430206" lon="34.098293">
<ele>53.879425</ele>
<time>2011-10-13T16:10:51Z</time>
<desc>lat.=44.430206, lon.=34.098293, Alt.=53.879425m. Speed=2.844000m/h.</desc>
<speed>0.790000</speed>
</trkpt>
<trkpt lat="44.430214" lon="34.098183">
<ele>53.093292</ele>
<time>2011-10-13T16:10:56Z</time>
<desc>lat.=44.430214, lon.=34.098183, Alt.=53.093292m. Speed=5.292000m/h.</desc>
<speed>1.470000</speed>
</trkpt>
<trkpt lat="44.430256" lon="34.098057">
<ele>52.187042</ele>
<time>2011-10-13T16:11:01Z</time>
<desc>lat.=44.430256, lon.=34.098057, Alt.=52.187042m. Speed=5.688000m/h.</desc>
<speed>1.580000</speed>
</trkpt>
<trkpt lat="44.430302" lon="34.097942">
<ele>51.427277</ele>
<time>2011-10-13T16:11:06Z</time>
<desc>lat.=44.430302, lon.=34.097942, Alt.=51.427277m. Speed=5.724000m/h.</desc>
<speed>1.590000</speed>
</trkpt>
<trkpt lat="44.430344" lon="34.097839">
<ele>48.971222</ele>
<time>2011-10-13T16:11:11Z</time>
<desc>lat.=44.430344, lon.=34.097839, Alt.=48.971222m. Speed=4.752000m/h.</desc>
<speed>1.320000</speed>
</trkpt>
<trkpt lat="44.430405" lon="34.097717">
<ele>47.484894</ele>
<time>2011-10-13T16:11:16Z</time>
<desc>lat.=44.430405, lon.=34.097717, Alt.=47.484894m. Speed=11.844000m/h.</desc>
<speed>3.290000</speed>
</trkpt>
<trkpt lat="44.430504" lon="34.097542">
<ele>46.079620</ele>
<time>2011-10-13T16:11:21Z</time>
<desc>lat.=44.430504, lon.=34.097542, Alt.=46.079620m. Speed=14.796000m/h.</desc>
<speed>4.110000</speed>
</trkpt>
<trkpt lat="44.430634" lon="34.097351">
<ele>45.614777</ele>
<time>2011-10-13T16:11:26Z</time>
<desc>lat.=44.430634, lon.=34.097351, Alt.=45.614777m. Speed=16.056000m/h.</desc>
<speed>4.460000</speed>
</trkpt>
<trkpt lat="44.430775" lon="34.097233">
<ele>45.851105</ele>
<time>2011-10-13T16:11:31Z</time>
<desc>lat.=44.430775, lon.=34.097233, Alt.=45.851105m. Speed=11.520000m/h.</desc>
<speed>3.200000</speed>
</trkpt>
<trkpt lat="44.430923" lon="34.097103">
<ele>45.887238</ele>
<time>2011-10-13T16:11:36Z</time>
<desc>lat.=44.430923, lon.=34.097103, Alt.=45.887238m. Speed=13.464000m/h.</desc>
<speed>3.740000</speed>
</trkpt>
<trkpt lat="44.431046" lon="34.096947">
<ele>47.038605</ele>
<time>2011-10-13T16:11:41Z</time>
<desc>lat.=44.431046, lon.=34.096947, Alt.=47.038605m. Speed=8.856000m/h.</desc>
<speed>2.460000</speed>
</trkpt>
<trkpt lat="44.431053" lon="34.096844">
<ele>48.658722</ele>
<time>2011-10-13T16:11:46Z</time>
<desc>lat.=44.431053, lon.=34.096844, Alt.=48.658722m. Speed=7.272000m/h.</desc>
<speed>2.020000</speed>
</trkpt>
<trkpt lat="44.431004" lon="34.096714">
<ele>49.188019</ele>
<time>2011-10-13T16:11:51Z</time>
<desc>lat.=44.431004, lon.=34.096714, Alt.=49.188019m. Speed=6.372000m/h.</desc>
<speed>1.770000</speed>
</trkpt>
<trkpt lat="44.430889" lon="34.096584">
<ele>50.084503</ele>
<time>2011-10-13T16:11:56Z</time>
<desc>lat.=44.430889, lon.=34.096584, Alt.=50.084503m. Speed=16.128000m/h.</desc>
<speed>4.480000</speed>
</trkpt>
<trkpt lat="44.430706" lon="34.096443">
<ele>51.101105</ele>
<time>2011-10-13T16:12:01Z</time>
<desc>lat.=44.430706, lon.=34.096443, Alt.=51.101105m. Speed=12.528000m/h.</desc>
<speed>3.480000</speed>
</trkpt>
<trkpt lat="44.430603" lon="34.096394">
<ele>52.092316</ele>
<time>2011-10-13T16:12:06Z</time>
<desc>lat.=44.430603, lon.=34.096394, Alt.=52.092316m. Speed=9.036000m/h.</desc>
<speed>2.510000</speed>
</trkpt>
<trkpt lat="44.430576" lon="34.096371">
<ele>53.510284</ele>
<time>2011-10-13T16:12:11Z</time>
<desc>lat.=44.430576, lon.=34.096371, Alt.=53.510284m. Speed=1.008000m/h.</desc>
<speed>0.280000</speed>
</trkpt>
<trkpt lat="44.430588" lon="34.096382">
<ele>54.673370</ele>
<time>2011-10-13T16:12:16Z</time>
<desc>lat.=44.430588, lon.=34.096382, Alt.=54.673370m. Speed=1.296000m/h.</desc>
<speed>0.360000</speed>
</trkpt>
<trkpt lat="44.430607" lon="34.096378">
<ele>56.178253</ele>
<time>2011-10-13T16:12:21Z</time>
<desc>lat.=44.430607, lon.=34.096378, Alt.=56.178253m. Speed=1.404000m/h.</desc>
<speed>0.390000</speed>
</trkpt>
<trkpt lat="44.430618" lon="34.096378">
<ele>57.570831</ele>
<time>2011-10-13T16:12:26Z</time>
<desc>lat.=44.430618, lon.=34.096378, Alt.=57.570831m. Speed=0.828000m/h.</desc>
<speed>0.230000</speed>
</trkpt>
<trkpt lat="44.430630" lon="34.096382">
<ele>59.030792</ele>
<time>2011-10-13T16:12:31Z</time>
<desc>lat.=44.430630, lon.=34.096382, Alt.=59.030792m. Speed=1.080000m/h.</desc>
<speed>0.300000</speed>
</trkpt>
<trkpt lat="44.430645" lon="34.096382">
<ele>60.437042</ele>
<time>2011-10-13T16:12:36Z</time>
<desc>lat.=44.430645, lon.=34.096382, Alt.=60.437042m. Speed=1.224000m/h.</desc>
<speed>0.340000</speed>
</trkpt>
<trkpt lat="44.430660" lon="34.096371">
<ele>61.874542</ele>
<time>2011-10-13T16:12:41Z</time>
<desc>lat.=44.430660, lon.=34.096371, Alt.=61.874542m. Speed=0.936000m/h.</desc>
<speed>0.260000</speed>
</trkpt>
<trkpt lat="44.430668" lon="34.096371">
<ele>62.763214</ele>
<time>2011-10-13T16:12:46Z</time>
<desc>lat.=44.430668, lon.=34.096371, Alt.=62.763214m. Speed=0.612000m/h.</desc>
<speed>0.170000</speed>
</trkpt>
<trkpt lat="44.430672" lon="34.096371">
<ele>63.431183</ele>
<time>2011-10-13T16:12:51Z</time>
<desc>lat.=44.430672, lon.=34.096371, Alt.=63.431183m. Speed=0.468000m/h.</desc>
<speed>0.130000</speed>
</trkpt>
<trkpt lat="44.430683" lon="34.096378">
<ele>63.855011</ele>
<time>2011-10-13T16:12:56Z</time>
<desc>lat.=44.430683, lon.=34.096378, Alt.=63.855011m. Speed=1.296000m/h.</desc>
<speed>0.360000</speed>
</trkpt>
<trkpt lat="44.430698" lon="34.096378">
<ele>64.303772</ele>
<time>2011-10-13T16:13:01Z</time>
<desc>lat.=44.430698, lon.=34.096378, Alt.=64.303772m. Speed=1.080000m/h.</desc>
<speed>0.300000</speed>
</trkpt>
<trkpt lat="44.430710" lon="34.096375">
<ele>64.713928</ele>
<time>2011-10-13T16:13:06Z</time>
<desc>lat.=44.430710, lon.=34.096375, Alt.=64.713928m. Speed=0.180000m/h.</desc>
<speed>0.050000</speed>
</trkpt>
<trkpt lat="44.430714" lon="34.096375">
<ele>64.934631</ele>
<time>2011-10-13T16:13:11Z</time>
<desc>lat.=44.430714, lon.=34.096375, Alt.=64.934631m. Speed=0.324000m/h.</desc>
<speed>0.090000</speed>
</trkpt>
<trkpt lat="44.430714" lon="34.096375">
<ele>65.067444</ele>
<time>2011-10-13T16:13:16Z</time>
<desc>lat.=44.430714, lon.=34.096375, Alt.=65.067444m. Speed=0.216000m/h.</desc>
<speed>0.060000</speed>
</trkpt>
<trkpt lat="44.430714" lon="34.096378">
<ele>65.100647</ele>
<time>2011-10-13T16:13:21Z</time>
<desc>lat.=44.430714, lon.=34.096378, Alt.=65.100647m. Speed=0.144000m/h.</desc>
<speed>0.040000</speed>
</trkpt>
<trkpt lat="44.430717" lon="34.096382">
<ele>65.170959</ele>
<time>2011-10-13T16:13:26Z</time>
<desc>lat.=44.430717, lon.=34.096382, Alt.=65.170959m. Speed=0.720000m/h.</desc>
<speed>0.200000</speed>
</trkpt>
<trkpt lat="44.430717" lon="34.096390">
<ele>65.252991</ele>
<time>2011-10-13T16:13:31Z</time>
<desc>lat.=44.430717, lon.=34.096390, Alt.=65.252991m. Speed=0.072000m/h.</desc>
<speed>0.020000</speed>
</trkpt>
<trkpt lat="44.430721" lon="34.096397">
<ele>65.340881</ele>
<time>2011-10-13T16:13:36Z</time>
<desc>lat.=44.430721, lon.=34.096397, Alt.=65.340881m. Speed=0.360000m/h.</desc>
<speed>0.100000</speed>
</trkpt>
<trkpt lat="44.430725" lon="34.096401">
<ele>65.444397</ele>
<time>2011-10-13T16:13:41Z</time>
<desc>lat.=44.430725, lon.=34.096401, Alt.=65.444397m. Speed=0.360000m/h.</desc>
<speed>0.100000</speed>
</trkpt>
<trkpt lat="44.430729" lon="34.096405">
<ele>65.553772</ele>
<time>2011-10-13T16:13:46Z</time>
<desc>lat.=44.430729, lon.=34.096405, Alt.=65.553772m. Speed=0.324000m/h.</desc>
<speed>0.090000</speed>
</trkpt>
<trkpt lat="44.430725" lon="34.096409">
<ele>65.645569</ele>
<time>2011-10-13T16:13:51Z</time>
<desc>lat.=44.430725, lon.=34.096409, Alt.=65.645569m. Speed=0.288000m/h.</desc>
<speed>0.080000</speed>
</trkpt>
<trkpt lat="44.430721" lon="34.096413">
<ele>65.708069</ele>
<time>2011-10-13T16:13:56Z</time>
<desc>lat.=44.430721, lon.=34.096413, Alt.=65.708069m. Speed=0.252000m/h.</desc>
<speed>0.070000</speed>
</trkpt>
<trkpt lat="44.430725" lon="34.096416">
<ele>65.762756</ele>
<time>2011-10-13T16:14:01Z</time>
<desc>lat.=44.430725, lon.=34.096416, Alt.=65.762756m. Speed=0.144000m/h.</desc>
<speed>0.040000</speed>
</trkpt>
<trkpt lat="44.430725" lon="34.096416">
<ele>65.782288</ele>
<time>2011-10-13T16:14:06Z</time>
<desc>lat.=44.430725, lon.=34.096416, Alt.=65.782288m. Speed=0.216000m/h.</desc>
<speed>0.060000</speed>
</trkpt>
<trkpt lat="44.430729" lon="34.096416">
<ele>65.807678</ele>
<time>2011-10-13T16:14:11Z</time>
<desc>lat.=44.430729, lon.=34.096416, Alt.=65.807678m. Speed=0.108000m/h.</desc>
<speed>0.030000</speed>
</trkpt>
<trkpt lat="44.430729" lon="34.096416">
<ele>65.891663</ele>
<time>2011-10-13T16:14:16Z</time>
<desc>lat.=44.430729, lon.=34.096416, Alt.=65.891663m. Speed=0.072000m/h.</desc>
<speed>0.020000</speed>
</trkpt>
<trkpt lat="44.430725" lon="34.096420">
<ele>65.971741</ele>
<time>2011-10-13T16:14:21Z</time>
<desc>lat.=44.430725, lon.=34.096420, Alt.=65.971741m. Speed=0.216000m/h.</desc>
<speed>0.060000</speed>
</trkpt>
<trkpt lat="44.430725" lon="34.096420">
<ele>66.016663</ele>
<time>2011-10-13T16:14:26Z</time>
<desc>lat.=44.430725, lon.=34.096420, Alt.=66.016663m. Speed=0.396000m/h.</desc>
<speed>0.110000</speed>
</trkpt>
<trkpt lat="44.430729" lon="34.096432">
<ele>66.079163</ele>
<time>2011-10-13T16:14:31Z</time>
<desc>lat.=44.430729, lon.=34.096432, Alt.=66.079163m. Speed=0.576000m/h.</desc>
<speed>0.160000</speed>
</trkpt>
<trkpt lat="44.430733" lon="34.096436">
<ele>66.147522</ele>
<time>2011-10-13T16:14:36Z</time>
<desc>lat.=44.430733, lon.=34.096436, Alt.=66.147522m. Speed=0.396000m/h.</desc>
<speed>0.110000</speed>
</trkpt>
<trkpt lat="44.430740" lon="34.096439">
<ele>66.268616</ele>
<time>2011-10-13T16:14:41Z</time>
<desc>lat.=44.430740, lon.=34.096439, Alt.=66.268616m. Speed=0.432000m/h.</desc>
<speed>0.120000</speed>
</trkpt>
<trkpt lat="44.430740" lon="34.096439">
<ele>66.366272</ele>
<time>2011-10-13T16:14:46Z</time>
<desc>lat.=44.430740, lon.=34.096439, Alt.=66.366272m. Speed=0.036000m/h.</desc>
<speed>0.010000</speed>
</trkpt>
<trkpt lat="44.430740" lon="34.096447">
<ele>66.440491</ele>
<time>2011-10-13T16:14:51Z</time>
<desc>lat.=44.430740, lon.=34.096447, Alt.=66.440491m. Speed=0.540000m/h.</desc>
<speed>0.150000</speed>
</trkpt>
<trkpt lat="44.430740" lon="34.096451">
<ele>66.497131</ele>
<time>2011-10-13T16:14:56Z</time>
<desc>lat.=44.430740, lon.=34.096451, Alt.=66.497131m. Speed=0.756000m/h.</desc>
<speed>0.210000</speed>
</trkpt>
<trkpt lat="44.430756" lon="34.096458">
<ele>66.585022</ele>
<time>2011-10-13T16:15:01Z</time>
<desc>lat.=44.430756, lon.=34.096458, Alt.=66.585022m. Speed=1.260000m/h.</desc>
<speed>0.350000</speed>
</trkpt>
<trkpt lat="44.430767" lon="34.096458">
<ele>66.752991</ele>
<time>2011-10-13T16:15:06Z</time>
<desc>lat.=44.430767, lon.=34.096458, Alt.=66.752991m. Speed=1.080000m/h.</desc>
<speed>0.300000</speed>
</trkpt>
<trkpt lat="44.430779" lon="34.096458">
<ele>66.940491</ele>
<time>2011-10-13T16:15:11Z</time>
<desc>lat.=44.430779, lon.=34.096458, Alt.=66.940491m. Speed=0.792000m/h.</desc>
<speed>0.220000</speed>
</trkpt>
<trkpt lat="44.430786" lon="34.096458">
<ele>67.178772</ele>
<time>2011-10-13T16:15:16Z</time>
<desc>lat.=44.430786, lon.=34.096458, Alt.=67.178772m. Speed=0.252000m/h.</desc>
<speed>0.070000</speed>
</trkpt>
<trkpt lat="44.430779" lon="34.096458">
<ele>67.504944</ele>
<time>2011-10-13T16:15:21Z</time>
<desc>lat.=44.430779, lon.=34.096458, Alt.=67.504944m. Speed=0.684000m/h.</desc>
<speed>0.190000</speed>
</trkpt>
<trkpt lat="44.430767" lon="34.096455">
<ele>67.977600</ele>
<time>2011-10-13T16:15:26Z</time>
<desc>lat.=44.430767, lon.=34.096455, Alt.=67.977600m. Speed=0.864000m/h.</desc>
<speed>0.240000</speed>
</trkpt>
<trkpt lat="44.430752" lon="34.096451">
<ele>68.565491</ele>
<time>2011-10-13T16:15:31Z</time>
<desc>lat.=44.430752, lon.=34.096451, Alt.=68.565491m. Speed=0.900000m/h.</desc>
<speed>0.250000</speed>
</trkpt>
<trkpt lat="44.430744" lon="34.096443">
<ele>69.278381</ele>
<time>2011-10-13T16:15:36Z</time>
<desc>lat.=44.430744, lon.=34.096443, Alt.=69.278381m. Speed=0.720000m/h.</desc>
<speed>0.200000</speed>
</trkpt>
<trkpt lat="44.430733" lon="34.096439">
<ele>70.045959</ele>
<time>2011-10-13T16:15:41Z</time>
<desc>lat.=44.430733, lon.=34.096439, Alt.=70.045959m. Speed=0.432000m/h.</desc>
<speed>0.120000</speed>
</trkpt>
<trkpt lat="44.430729" lon="34.096436">
<ele>70.838928</ele>
<time>2011-10-13T16:15:46Z</time>
<desc>lat.=44.430729, lon.=34.096436, Alt.=70.838928m. Speed=0.216000m/h.</desc>
<speed>0.060000</speed>
</trkpt>
<trkpt lat="44.430729" lon="34.096432">
<ele>71.667053</ele>
<time>2011-10-13T16:15:51Z</time>
<desc>lat.=44.430729, lon.=34.096432, Alt.=71.667053m. Speed=0.360000m/h.</desc>
<speed>0.100000</speed>
</trkpt>
<trkpt lat="44.430721" lon="34.096432">
<ele>72.553772</ele>
<time>2011-10-13T16:15:56Z</time>
<desc>lat.=44.430721, lon.=34.096432, Alt.=72.553772m. Speed=0.864000m/h.</desc>
<speed>0.240000</speed>
</trkpt>
<trkpt lat="44.430714" lon="34.096439">
<ele>73.249084</ele>
<time>2011-10-13T16:16:01Z</time>
<desc>lat.=44.430714, lon.=34.096439, Alt.=73.249084m. Speed=0.828000m/h.</desc>
<speed>0.230000</speed>
</trkpt>
<trkpt lat="44.430702" lon="34.096443">
<ele>73.891663</ele>
<time>2011-10-13T16:16:06Z</time>
<desc>lat.=44.430702, lon.=34.096443, Alt.=73.891663m. Speed=0.972000m/h.</desc>
<speed>0.270000</speed>
</trkpt>
<trkpt lat="44.430691" lon="34.096451">
<ele>74.475647</ele>
<time>2011-10-13T16:16:11Z</time>
<desc>lat.=44.430691, lon.=34.096451, Alt.=74.475647m. Speed=1.152000m/h.</desc>
<speed>0.320000</speed>
</trkpt>
<trkpt lat="44.430706" lon="34.096436">
<ele>74.571350</ele>
<time>2011-10-13T16:16:16Z</time>
<desc>lat.=44.430706, lon.=34.096436, Alt.=74.571350m. Speed=0.396000m/h.</desc>
<speed>0.110000</speed>
</trkpt>
<trkpt lat="44.430706" lon="34.096447">
<ele>75.153381</ele>
<time>2011-10-13T16:16:21Z</time>
<desc>lat.=44.430706, lon.=34.096447, Alt.=75.153381m. Speed=0.972000m/h.</desc>
<speed>0.270000</speed>
</trkpt>
<trkpt lat="44.430656" lon="34.096481">
<ele>74.309631</ele>
<time>2011-10-13T16:16:26Z</time>
<desc>lat.=44.430656, lon.=34.096481, Alt.=74.309631m. Speed=1.404000m/h.</desc>
<speed>0.390000</speed>
</trkpt>
<trkpt lat="44.430649" lon="34.096489">
<ele>74.381897</ele>
<time>2011-10-13T16:16:31Z</time>
<desc>lat.=44.430649, lon.=34.096489, Alt.=74.381897m. Speed=1.188000m/h.</desc>
<speed>0.330000</speed>
</trkpt>
<trkpt lat="44.430618" lon="34.096523">
<ele>74.182678</ele>
<time>2011-10-13T16:16:36Z</time>
<desc>lat.=44.430618, lon.=34.096523, Alt.=74.182678m. Speed=1.260000m/h.</desc>
<speed>0.350000</speed>
</trkpt>
<trkpt lat="44.430676" lon="34.096531">
<ele>74.020569</ele>
<time>2011-10-13T16:16:41Z</time>
<desc>lat.=44.430676, lon.=34.096531, Alt.=74.020569m. Speed=2.016000m/h.</desc>
<speed>0.560000</speed>
</trkpt>
<trkpt lat="44.430740" lon="34.096577">
<ele>74.274475</ele>
<time>2011-10-13T16:16:46Z</time>
<desc>lat.=44.430740, lon.=34.096577, Alt.=74.274475m. Speed=12.492000m/h.</desc>
<speed>3.470000</speed>
</trkpt>
<trkpt lat="44.430840" lon="34.096622">
<ele>75.694397</ele>
<time>2011-10-13T16:16:51Z</time>
<desc>lat.=44.430840, lon.=34.096622, Alt.=75.694397m. Speed=6.012000m/h.</desc>
<speed>1.670000</speed>
</trkpt>
<trkpt lat="44.430969" lon="34.096725">
<ele>74.721741</ele>
<time>2011-10-13T16:16:56Z</time>
<desc>lat.=44.430969, lon.=34.096725, Alt.=74.721741m. Speed=10.944000m/h.</desc>
<speed>3.040000</speed>
</trkpt>
<trkpt lat="44.430882" lon="34.096931">
<ele>72.383850</ele>
<time>2011-10-13T16:17:01Z</time>
<desc>lat.=44.430882, lon.=34.096931, Alt.=72.383850m. Speed=13.392000m/h.</desc>
<speed>3.720000</speed>
</trkpt>
<trkpt lat="44.430737" lon="34.097050">
<ele>71.944397</ele>
<time>2011-10-13T16:17:06Z</time>
<desc>lat.=44.430737, lon.=34.097050, Alt.=71.944397m. Speed=12.384000m/h.</desc>
<speed>3.440000</speed>
</trkpt>
<trkpt lat="44.430614" lon="34.097172">
<ele>70.290100</ele>
<time>2011-10-13T16:17:11Z</time>
<desc>lat.=44.430614, lon.=34.097172, Alt.=70.290100m. Speed=11.484000m/h.</desc>
<speed>3.190000</speed>
</trkpt>
<trkpt lat="44.430531" lon="34.097271">
<ele>67.256897</ele>
<time>2011-10-13T16:17:16Z</time>
<desc>lat.=44.430531, lon.=34.097271, Alt.=67.256897m. Speed=8.856000m/h.</desc>
<speed>2.460000</speed>
</trkpt>
<trkpt lat="44.430481" lon="34.097359">
<ele>67.010803</ele>
<time>2011-10-13T16:17:21Z</time>
<desc>lat.=44.430481, lon.=34.097359, Alt.=67.010803m. Speed=8.820000m/h.</desc>
<speed>2.450000</speed>
</trkpt>
<trkpt lat="44.430424" lon="34.097435">
<ele>67.057678</ele>
<time>2011-10-13T16:17:26Z</time>
<desc>lat.=44.430424, lon.=34.097435, Alt.=67.057678m. Speed=5.904000m/h.</desc>
<speed>1.640000</speed>
</trkpt>
<trkpt lat="44.430393" lon="34.097511">
<ele>67.967834</ele>
<time>2011-10-13T16:17:31Z</time>
<desc>lat.=44.430393, lon.=34.097511, Alt.=67.967834m. Speed=3.744000m/h.</desc>
<speed>1.040000</speed>
</trkpt>
<trkpt lat="44.430340" lon="34.097588">
<ele>68.583069</ele>
<time>2011-10-13T16:17:36Z</time>
<desc>lat.=44.430340, lon.=34.097588, Alt.=68.583069m. Speed=5.760000m/h.</desc>
<speed>1.600000</speed>
</trkpt>
<trkpt lat="44.430309" lon="34.097668">
<ele>69.211975</ele>
<time>2011-10-13T16:17:41Z</time>
<desc>lat.=44.430309, lon.=34.097668, Alt.=69.211975m. Speed=5.616000m/h.</desc>
<speed>1.560000</speed>
</trkpt>
<trkpt lat="44.430286" lon="34.097733">
<ele>67.420959</ele>
<time>2011-10-13T16:17:46Z</time>
<desc>lat.=44.430286, lon.=34.097733, Alt.=67.420959m. Speed=5.256000m/h.</desc>
<speed>1.460000</speed>
</trkpt>
<trkpt lat="44.430237" lon="34.097813">
<ele>64.465881</ele>
<time>2011-10-13T16:17:51Z</time>
<desc>lat.=44.430237, lon.=34.097813, Alt.=64.465881m. Speed=4.752000m/h.</desc>
<speed>1.320000</speed>
</trkpt>
<trkpt lat="44.430180" lon="34.097885">
<ele>61.214386</ele>
<time>2011-10-13T16:17:56Z</time>
<desc>lat.=44.430180, lon.=34.097885, Alt.=61.214386m. Speed=5.112000m/h.</desc>
<speed>1.420000</speed>
</trkpt>
<trkpt lat="44.430145" lon="34.098003">
<ele>56.043488</ele>
<time>2011-10-13T16:18:01Z</time>
<desc>lat.=44.430145, lon.=34.098003, Alt.=56.043488m. Speed=6.156000m/h.</desc>
<speed>1.710000</speed>
</trkpt>
<trkpt lat="44.430122" lon="34.098099">
<ele>55.366730</ele>
<time>2011-10-13T16:18:06Z</time>
<desc>lat.=44.430122, lon.=34.098099, Alt.=55.366730m. Speed=6.444000m/h.</desc>
<speed>1.790000</speed>
</trkpt>
<trkpt lat="44.430107" lon="34.098206">
<ele>55.866730</ele>
<time>2011-10-13T16:18:11Z</time>
<desc>lat.=44.430107, lon.=34.098206, Alt.=55.866730m. Speed=6.048000m/h.</desc>
<speed>1.680000</speed>
</trkpt>
<trkpt lat="44.430103" lon="34.098309">
<ele>53.948761</ele>
<time>2011-10-13T16:18:16Z</time>
<desc>lat.=44.430103, lon.=34.098309, Alt.=53.948761m. Speed=5.112000m/h.</desc>
<speed>1.420000</speed>
</trkpt>
<trkpt lat="44.430111" lon="34.098431">
<ele>51.580597</ele>
<time>2011-10-13T16:18:21Z</time>
<desc>lat.=44.430111, lon.=34.098431, Alt.=51.580597m. Speed=6.156000m/h.</desc>
<speed>1.710000</speed>
</trkpt>
<trkpt lat="44.430119" lon="34.098530">
<ele>50.046417</ele>
<time>2011-10-13T16:18:26Z</time>
<desc>lat.=44.430119, lon.=34.098530, Alt.=50.046417m. Speed=6.336000m/h.</desc>
<speed>1.760000</speed>
</trkpt>
<trkpt lat="44.430119" lon="34.098640">
<ele>48.720245</ele>
<time>2011-10-13T16:18:31Z</time>
<desc>lat.=44.430119, lon.=34.098640, Alt.=48.720245m. Speed=6.300000m/h.</desc>
<speed>1.750000</speed>
</trkpt>
<trkpt lat="44.430134" lon="34.098766">
<ele>45.705597</ele>
<time>2011-10-13T16:18:36Z</time>
<desc>lat.=44.430134, lon.=34.098766, Alt.=45.705597m. Speed=6.264000m/h.</desc>
<speed>1.740000</speed>
</trkpt>
<trkpt lat="44.430141" lon="34.098866">
<ele>44.851105</ele>
<time>2011-10-13T16:18:41Z</time>
<desc>lat.=44.430141, lon.=34.098866, Alt.=44.851105m. Speed=5.868000m/h.</desc>
<speed>1.630000</speed>
</trkpt>
<trkpt lat="44.430149" lon="34.098961">
<ele>45.770050</ele>
<time>2011-10-13T16:18:46Z</time>
<desc>lat.=44.430149, lon.=34.098961, Alt.=45.770050m. Speed=5.328000m/h.</desc>
<speed>1.480000</speed>
</trkpt>
<trkpt lat="44.430157" lon="34.099045">
<ele>47.605988</ele>
<time>2011-10-13T16:18:51Z</time>
<desc>lat.=44.430157, lon.=34.099045, Alt.=47.605988m. Speed=5.616000m/h.</desc>
<speed>1.560000</speed>
</trkpt>
<trkpt lat="44.430153" lon="34.099140">
<ele>49.298370</ele>
<time>2011-10-13T16:18:56Z</time>
<desc>lat.=44.430153, lon.=34.099140, Alt.=49.298370m. Speed=4.896000m/h.</desc>
<speed>1.360000</speed>
</trkpt>
<trkpt lat="44.430176" lon="34.099243">
<ele>50.051300</ele>
<time>2011-10-13T16:19:01Z</time>
<desc>lat.=44.430176, lon.=34.099243, Alt.=50.051300m. Speed=5.184000m/h.</desc>
<speed>1.440000</speed>
</trkpt>
<trkpt lat="44.430172" lon="34.099339">
<ele>50.595245</ele>
<time>2011-10-13T16:19:06Z</time>
<desc>lat.=44.430172, lon.=34.099339, Alt.=50.595245m. Speed=5.472000m/h.</desc>
<speed>1.520000</speed>
</trkpt>
<trkpt lat="44.430191" lon="34.099430">
<ele>51.120636</ele>
<time>2011-10-13T16:19:11Z</time>
<desc>lat.=44.430191, lon.=34.099430, Alt.=51.120636m. Speed=4.428000m/h.</desc>
<speed>1.230000</speed>
</trkpt>
<trkpt lat="44.430191" lon="34.099541">
<ele>53.946808</ele>
<time>2011-10-13T16:19:16Z</time>
<desc>lat.=44.430191, lon.=34.099541, Alt.=53.946808m. Speed=4.860000m/h.</desc>
<speed>1.350000</speed>
</trkpt>
<trkpt lat="44.430183" lon="34.099640">
<ele>52.605988</ele>
<time>2011-10-13T16:19:21Z</time>
<desc>lat.=44.430183, lon.=34.099640, Alt.=52.605988m. Speed=5.832000m/h.</desc>
<speed>1.620000</speed>
</trkpt>
<trkpt lat="44.430164" lon="34.099758">
<ele>50.240753</ele>
<time>2011-10-13T16:19:26Z</time>
<desc>lat.=44.430164, lon.=34.099758, Alt.=50.240753m. Speed=6.840000m/h.</desc>
<speed>1.900000</speed>
</trkpt>
<trkpt lat="44.430157" lon="34.099895">
<ele>50.135284</ele>
<time>2011-10-13T16:19:31Z</time>
<desc>lat.=44.430157, lon.=34.099895, Alt.=50.135284m. Speed=6.300000m/h.</desc>
<speed>1.750000</speed>
</trkpt>
<trkpt lat="44.430149" lon="34.100006">
<ele>49.718292</ele>
<time>2011-10-13T16:19:36Z</time>
<desc>lat.=44.430149, lon.=34.100006, Alt.=49.718292m. Speed=6.084000m/h.</desc>
<speed>1.690000</speed>
</trkpt>
<trkpt lat="44.430145" lon="34.100094">
<ele>50.731964</ele>
<time>2011-10-13T16:19:41Z</time>
<desc>lat.=44.430145, lon.=34.100094, Alt.=50.731964m. Speed=5.148000m/h.</desc>
<speed>1.430000</speed>
</trkpt>
<trkpt lat="44.430126" lon="34.100178">
<ele>51.582550</ele>
<time>2011-10-13T16:19:46Z</time>
<desc>lat.=44.430126, lon.=34.100178, Alt.=51.582550m. Speed=5.544000m/h.</desc>
<speed>1.540000</speed>
</trkpt>
<trkpt lat="44.430103" lon="34.100262">
<ele>53.247589</ele>
<time>2011-10-13T16:19:51Z</time>
<desc>lat.=44.430103, lon.=34.100262, Alt.=53.247589m. Speed=5.292000m/h.</desc>
<speed>1.470000</speed>
</trkpt>
<trkpt lat="44.430080" lon="34.100349">
<ele>54.987823</ele>
<time>2011-10-13T16:19:56Z</time>
<desc>lat.=44.430080, lon.=34.100349, Alt.=54.987823m. Speed=4.428000m/h.</desc>
<speed>1.230000</speed>
</trkpt>
<trkpt lat="44.430080" lon="34.100464">
<ele>55.569855</ele>
<time>2011-10-13T16:20:01Z</time>
<desc>lat.=44.430080, lon.=34.100464, Alt.=55.569855m. Speed=4.788000m/h.</desc>
<speed>1.330000</speed>
</trkpt>
<trkpt lat="44.430065" lon="34.100567">
<ele>54.316925</ele>
<time>2011-10-13T16:20:06Z</time>
<desc>lat.=44.430065, lon.=34.100567, Alt.=54.316925m. Speed=4.788000m/h.</desc>
<speed>1.330000</speed>
</trkpt>
<trkpt lat="44.430050" lon="34.100651">
<ele>54.771027</ele>
<time>2011-10-13T16:20:11Z</time>
<desc>lat.=44.430050, lon.=34.100651, Alt.=54.771027m. Speed=4.176000m/h.</desc>
<speed>1.160000</speed>
</trkpt>
<trkpt lat="44.430031" lon="34.100719">
<ele>55.462433</ele>
<time>2011-10-13T16:20:16Z</time>
<desc>lat.=44.430031, lon.=34.100719, Alt.=55.462433m. Speed=4.644000m/h.</desc>
<speed>1.290000</speed>
</trkpt>
<trkpt lat="44.430016" lon="34.100811">
<ele>56.649933</ele>
<time>2011-10-13T16:20:21Z</time>
<desc>lat.=44.430016, lon.=34.100811, Alt.=56.649933m. Speed=7.848000m/h.</desc>
<speed>2.180000</speed>
</trkpt>
<trkpt lat="44.429962" lon="34.100933">
<ele>57.184113</ele>
<time>2011-10-13T16:20:26Z</time>
<desc>lat.=44.429962, lon.=34.100933, Alt.=57.184113m. Speed=5.400000m/h.</desc>
<speed>1.500000</speed>
</trkpt>
<trkpt lat="44.429935" lon="34.101028">
<ele>58.998566</ele>
<time>2011-10-13T16:20:31Z</time>
<desc>lat.=44.429935, lon.=34.101028, Alt.=58.998566m. Speed=5.256000m/h.</desc>
<speed>1.460000</speed>
</trkpt>
<trkpt lat="44.429924" lon="34.101147">
<ele>62.229034</ele>
<time>2011-10-13T16:20:36Z</time>
<desc>lat.=44.429924, lon.=34.101147, Alt.=62.229034m. Speed=5.148000m/h.</desc>
<speed>1.430000</speed>
</trkpt>
<trkpt lat="44.429905" lon="34.101227">
<ele>62.950714</ele>
<time>2011-10-13T16:20:41Z</time>
<desc>lat.=44.429905, lon.=34.101227, Alt.=62.950714m. Speed=2.196000m/h.</desc>
<speed>0.610000</speed>
</trkpt>
<trkpt lat="44.429855" lon="34.101265">
<ele>63.903839</ele>
<time>2011-10-13T16:20:46Z</time>
<desc>lat.=44.429855, lon.=34.101265, Alt.=63.903839m. Speed=3.276000m/h.</desc>
<speed>0.910000</speed>
</trkpt>
<trkpt lat="44.429825" lon="34.101326">
<ele>64.600647</ele>
<time>2011-10-13T16:20:51Z</time>
<desc>lat.=44.429825, lon.=34.101326, Alt.=64.600647m. Speed=5.616000m/h.</desc>
<speed>1.560000</speed>
</trkpt>
<trkpt lat="44.429775" lon="34.101395">
<ele>65.975647</ele>
<time>2011-10-13T16:20:56Z</time>
<desc>lat.=44.429775, lon.=34.101395, Alt.=65.975647m. Speed=3.492000m/h.</desc>
<speed>0.970000</speed>
</trkpt>
<trkpt lat="44.429718" lon="34.101467">
<ele>66.448303</ele>
<time>2011-10-13T16:21:01Z</time>
<desc>lat.=44.429718, lon.=34.101467, Alt.=66.448303m. Speed=4.284000m/h.</desc>
<speed>1.190000</speed>
</trkpt>
<trkpt lat="44.429680" lon="34.101517">
<ele>67.540100</ele>
<time>2011-10-13T16:21:06Z</time>
<desc>lat.=44.429680, lon.=34.101517, Alt.=67.540100m. Speed=4.176000m/h.</desc>
<speed>1.160000</speed>
</trkpt>
<trkpt lat="44.429623" lon="34.101574">
<ele>68.801819</ele>
<time>2011-10-13T16:21:11Z</time>
<desc>lat.=44.429623, lon.=34.101574, Alt.=68.801819m. Speed=4.176000m/h.</desc>
<speed>1.160000</speed>
</trkpt>
<trkpt lat="44.429565" lon="34.101662">
<ele>68.467834</ele>
<time>2011-10-13T16:21:16Z</time>
<desc>lat.=44.429565, lon.=34.101662, Alt.=68.467834m. Speed=4.248000m/h.</desc>
<speed>1.180000</speed>
</trkpt>
<trkpt lat="44.429489" lon="34.101734">
<ele>69.126038</ele>
<time>2011-10-13T16:21:21Z</time>
<desc>lat.=44.429489, lon.=34.101734, Alt.=69.126038m. Speed=5.256000m/h.</desc>
<speed>1.460000</speed>
</trkpt>
<trkpt lat="44.429420" lon="34.101772">
<ele>70.422913</ele>
<time>2011-10-13T16:21:26Z</time>
<desc>lat.=44.429420, lon.=34.101772, Alt.=70.422913m. Speed=6.084000m/h.</desc>
<speed>1.690000</speed>
</trkpt>
<trkpt lat="44.429344" lon="34.101826">
<ele>70.424866</ele>
<time>2011-10-13T16:21:31Z</time>
<desc>lat.=44.429344, lon.=34.101826, Alt.=70.424866m. Speed=4.392000m/h.</desc>
<speed>1.220000</speed>
</trkpt>
<trkpt lat="44.429291" lon="34.101898">
<ele>71.469788</ele>
<time>2011-10-13T16:21:36Z</time>
<desc>lat.=44.429291, lon.=34.101898, Alt.=71.469788m. Speed=5.328000m/h.</desc>
<speed>1.480000</speed>
</trkpt>
<trkpt lat="44.429260" lon="34.101929">
<ele>72.178772</ele>
<time>2011-10-13T16:21:41Z</time>
<desc>lat.=44.429260, lon.=34.101929, Alt.=72.178772m. Speed=5.040000m/h.</desc>
<speed>1.400000</speed>
</trkpt>
<trkpt lat="44.429237" lon="34.101971">
<ele>72.829163</ele>
<time>2011-10-13T16:21:46Z</time>
<desc>lat.=44.429237, lon.=34.101971, Alt.=72.829163m. Speed=3.600000m/h.</desc>
<speed>1.000000</speed>
</trkpt>
<trkpt lat="44.429207" lon="34.102020">
<ele>73.649475</ele>
<time>2011-10-13T16:21:51Z</time>
<desc>lat.=44.429207, lon.=34.102020, Alt.=73.649475m. Speed=3.924000m/h.</desc>
<speed>1.090000</speed>
</trkpt>
<trkpt lat="44.429180" lon="34.102100">
<ele>72.788147</ele>
<time>2011-10-13T16:21:56Z</time>
<desc>lat.=44.429180, lon.=34.102100, Alt.=72.788147m. Speed=4.212000m/h.</desc>
<speed>1.170000</speed>
</trkpt>
<trkpt lat="44.429157" lon="34.102184">
<ele>74.213928</ele>
<time>2011-10-13T16:22:01Z</time>
<desc>lat.=44.429157, lon.=34.102184, Alt.=74.213928m. Speed=3.780000m/h.</desc>
<speed>1.050000</speed>
</trkpt>
<trkpt lat="44.429131" lon="34.102249">
<ele>75.040100</ele>
<time>2011-10-13T16:22:06Z</time>
<desc>lat.=44.429131, lon.=34.102249, Alt.=75.040100m. Speed=4.500000m/h.</desc>
<speed>1.250000</speed>
</trkpt>
<trkpt lat="44.429100" lon="34.102325">
<ele>75.948303</ele>
<time>2011-10-13T16:22:11Z</time>
<desc>lat.=44.429100, lon.=34.102325, Alt.=75.948303m. Speed=4.680000m/h.</desc>
<speed>1.300000</speed>
</trkpt>
<trkpt lat="44.429054" lon="34.102451">
<ele>77.766663</ele>
<time>2011-10-13T16:22:16Z</time>
<desc>lat.=44.429054, lon.=34.102451, Alt.=77.766663m. Speed=7.056000m/h.</desc>
<speed>1.960000</speed>
</trkpt>
<trkpt lat="44.429020" lon="34.102554">
<ele>79.399475</ele>
<time>2011-10-13T16:22:21Z</time>
<desc>lat.=44.429020, lon.=34.102554, Alt.=79.399475m. Speed=7.092000m/h.</desc>
<speed>1.970000</speed>
</trkpt>
<trkpt lat="44.429001" lon="34.102642">
<ele>80.083069</ele>
<time>2011-10-13T16:22:26Z</time>
<desc>lat.=44.429001, lon.=34.102642, Alt.=80.083069m. Speed=3.888000m/h.</desc>
<speed>1.080000</speed>
</trkpt>
<trkpt lat="44.428898" lon="34.102699">
<ele>80.475647</ele>
<time>2011-10-13T16:22:31Z</time>
<desc>lat.=44.428898, lon.=34.102699, Alt.=80.475647m. Speed=6.444000m/h.</desc>
<speed>1.790000</speed>
</trkpt>
<trkpt lat="44.428837" lon="34.102745">
<ele>82.045959</ele>
<time>2011-10-13T16:22:36Z</time>
<desc>lat.=44.428837, lon.=34.102745, Alt.=82.045959m. Speed=2.520000m/h.</desc>
<speed>0.700000</speed>
</trkpt>
<trkpt lat="44.428806" lon="34.102833">
<ele>82.905334</ele>
<time>2011-10-13T16:22:41Z</time>
<desc>lat.=44.428806, lon.=34.102833, Alt.=82.905334m. Speed=4.464000m/h.</desc>
<speed>1.240000</speed>
</trkpt>
<trkpt lat="44.428810" lon="34.102909">
<ele>81.754944</ele>
<time>2011-10-13T16:22:46Z</time>
<desc>lat.=44.428810, lon.=34.102909, Alt.=81.754944m. Speed=2.448000m/h.</desc>
<speed>0.680000</speed>
</trkpt>
<trkpt lat="44.428818" lon="34.103004">
<ele>82.122131</ele>
<time>2011-10-13T16:22:51Z</time>
<desc>lat.=44.428818, lon.=34.103004, Alt.=82.122131m. Speed=3.996000m/h.</desc>
<speed>1.110000</speed>
</trkpt>
<trkpt lat="44.428814" lon="34.103157">
<ele>79.907288</ele>
<time>2011-10-13T16:22:56Z</time>
<desc>lat.=44.428814, lon.=34.103157, Alt.=79.907288m. Speed=6.336000m/h.</desc>
<speed>1.760000</speed>
</trkpt>
<trkpt lat="44.428825" lon="34.103241">
<ele>75.530334</ele>
<time>2011-10-13T16:23:01Z</time>
<desc>lat.=44.428825, lon.=34.103241, Alt.=75.530334m. Speed=1.008000m/h.</desc>
<speed>0.280000</speed>
</trkpt>
<trkpt lat="44.428814" lon="34.103287">
<ele>74.229553</ele>
<time>2011-10-13T16:23:06Z</time>
<desc>lat.=44.428814, lon.=34.103287, Alt.=74.229553m. Speed=4.104000m/h.</desc>
<speed>1.140000</speed>
</trkpt>
<trkpt lat="44.428780" lon="34.103344">
<ele>72.940491</ele>
<time>2011-10-13T16:23:11Z</time>
<desc>lat.=44.428780, lon.=34.103344, Alt.=72.940491m. Speed=4.068000m/h.</desc>
<speed>1.130000</speed>
</trkpt>
<trkpt lat="44.428730" lon="34.103409">
<ele>71.256897</ele>
<time>2011-10-13T16:23:16Z</time>
<desc>lat.=44.428730, lon.=34.103409, Alt.=71.256897m. Speed=5.940000m/h.</desc>
<speed>1.650000</speed>
</trkpt>
<trkpt lat="44.428730" lon="34.103531">
<ele>68.184631</ele>
<time>2011-10-13T16:23:21Z</time>
<desc>lat.=44.428730, lon.=34.103531, Alt.=68.184631m. Speed=4.752000m/h.</desc>
<speed>1.320000</speed>
</trkpt>
<trkpt lat="44.428745" lon="34.103622">
<ele>66.797913</ele>
<time>2011-10-13T16:23:26Z</time>
<desc>lat.=44.428745, lon.=34.103622, Alt.=66.797913m. Speed=4.968000m/h.</desc>
<speed>1.380000</speed>
</trkpt>
<trkpt lat="44.428726" lon="34.103710">
<ele>67.114319</ele>
<time>2011-10-13T16:23:31Z</time>
<desc>lat.=44.428726, lon.=34.103710, Alt.=67.114319m. Speed=4.824000m/h.</desc>
<speed>1.340000</speed>
</trkpt>
<trkpt lat="44.428745" lon="34.103783">
<ele>68.344788</ele>
<time>2011-10-13T16:23:36Z</time>
<desc>lat.=44.428745, lon.=34.103783, Alt.=68.344788m. Speed=6.228000m/h.</desc>
<speed>1.730000</speed>
</trkpt>
<trkpt lat="44.428753" lon="34.103909">
<ele>68.202209</ele>
<time>2011-10-13T16:23:41Z</time>
<desc>lat.=44.428753, lon.=34.103909, Alt.=68.202209m. Speed=4.788000m/h.</desc>
<speed>1.330000</speed>
</trkpt>
<trkpt lat="44.428783" lon="34.104012">
<ele>68.711975</ele>
<time>2011-10-13T16:23:46Z</time>
<desc>lat.=44.428783, lon.=34.104012, Alt.=68.711975m. Speed=5.292000m/h.</desc>
<speed>1.470000</speed>
</trkpt>
<trkpt lat="44.428776" lon="34.104092">
<ele>69.876038</ele>
<time>2011-10-13T16:23:51Z</time>
<desc>lat.=44.428776, lon.=34.104092, Alt.=69.876038m. Speed=4.068000m/h.</desc>
<speed>1.130000</speed>
</trkpt>
<trkpt lat="44.428810" lon="34.104149">
<ele>71.270569</ele>
<time>2011-10-13T16:23:56Z</time>
<desc>lat.=44.428810, lon.=34.104149, Alt.=71.270569m. Speed=3.060000m/h.</desc>
<speed>0.850000</speed>
</trkpt>
<trkpt lat="44.428860" lon="34.104191">
<ele>70.276428</ele>
<time>2011-10-13T16:24:01Z</time>
<desc>lat.=44.428860, lon.=34.104191, Alt.=70.276428m. Speed=4.140000m/h.</desc>
<speed>1.150000</speed>
</trkpt>
<trkpt lat="44.428898" lon="34.104256">
<ele>71.756897</ele>
<time>2011-10-13T16:24:06Z</time>
<desc>lat.=44.428898, lon.=34.104256, Alt.=71.756897m. Speed=4.392000m/h.</desc>
<speed>1.220000</speed>
</trkpt>
<trkpt lat="44.428936" lon="34.104324">
<ele>72.985413</ele>
<time>2011-10-13T16:24:11Z</time>
<desc>lat.=44.428936, lon.=34.104324, Alt.=72.985413m. Speed=4.428000m/h.</desc>
<speed>1.230000</speed>
</trkpt>
<trkpt lat="44.428967" lon="34.104389">
<ele>73.983459</ele>
<time>2011-10-13T16:24:16Z</time>
<desc>lat.=44.428967, lon.=34.104389, Alt.=73.983459m. Speed=4.284000m/h.</desc>
<speed>1.190000</speed>
</trkpt>
<trkpt lat="44.429012" lon="34.104450">
<ele>75.618225</ele>
<time>2011-10-13T16:24:21Z</time>
<desc>lat.=44.429012, lon.=34.104450, Alt.=75.618225m. Speed=4.176000m/h.</desc>
<speed>1.160000</speed>
</trkpt>
<trkpt lat="44.429066" lon="34.104549">
<ele>75.510803</ele>
<time>2011-10-13T16:24:26Z</time>
<desc>lat.=44.429066, lon.=34.104549, Alt.=75.510803m. Speed=3.240000m/h.</desc>
<speed>0.900000</speed>
</trkpt>
<trkpt lat="44.429115" lon="34.104603">
<ele>75.794006</ele>
<time>2011-10-13T16:24:31Z</time>
<desc>lat.=44.429115, lon.=34.104603, Alt.=75.794006m. Speed=3.708000m/h.</desc>
<speed>1.030000</speed>
</trkpt>
<trkpt lat="44.429161" lon="34.104645">
<ele>76.102600</ele>
<time>2011-10-13T16:24:36Z</time>
<desc>lat.=44.429161, lon.=34.104645, Alt.=76.102600m. Speed=7.344000m/h.</desc>
<speed>2.040000</speed>
</trkpt>
<trkpt lat="44.429211" lon="34.104694">
<ele>77.487366</ele>
<time>2011-10-13T16:24:41Z</time>
<desc>lat.=44.429211, lon.=34.104694, Alt.=77.487366m. Speed=4.752000m/h.</desc>
<speed>1.320000</speed>
</trkpt>
<trkpt lat="44.429272" lon="34.104771">
<ele>76.727600</ele>
<time>2011-10-13T16:24:46Z</time>
<desc>lat.=44.429272, lon.=34.104771, Alt.=76.727600m. Speed=4.644000m/h.</desc>
<speed>1.290000</speed>
</trkpt>
<trkpt lat="44.429333" lon="34.104851">
<ele>76.614319</ele>
<time>2011-10-13T16:24:51Z</time>
<desc>lat.=44.429333, lon.=34.104851, Alt.=76.614319m. Speed=5.760000m/h.</desc>
<speed>1.600000</speed>
</trkpt>
<trkpt lat="44.429394" lon="34.104908">
<ele>76.202209</ele>
<time>2011-10-13T16:24:56Z</time>
<desc>lat.=44.429394, lon.=34.104908, Alt.=76.202209m. Speed=3.924000m/h.</desc>
<speed>1.090000</speed>
</trkpt>
<trkpt lat="44.429462" lon="34.104954">
<ele>75.534241</ele>
<time>2011-10-13T16:25:01Z</time>
<desc>lat.=44.429462, lon.=34.104954, Alt.=75.534241m. Speed=4.644000m/h.</desc>
<speed>1.290000</speed>
</trkpt>
<trkpt lat="44.429520" lon="34.105007">
<ele>76.790100</ele>
<time>2011-10-13T16:25:06Z</time>
<desc>lat.=44.429520, lon.=34.105007, Alt.=76.790100m. Speed=4.464000m/h.</desc>
<speed>1.240000</speed>
</trkpt>
<trkpt lat="44.429577" lon="34.105034">
<ele>77.510803</ele>
<time>2011-10-13T16:25:11Z</time>
<desc>lat.=44.429577, lon.=34.105034, Alt.=77.510803m. Speed=4.464000m/h.</desc>
<speed>1.240000</speed>
</trkpt>
<trkpt lat="44.429649" lon="34.105061">
<ele>79.081116</ele>
<time>2011-10-13T16:25:16Z</time>
<desc>lat.=44.429649, lon.=34.105061, Alt.=79.081116m. Speed=4.860000m/h.</desc>
<speed>1.350000</speed>
</trkpt>
<trkpt lat="44.429726" lon="34.105106">
<ele>78.950256</ele>
<time>2011-10-13T16:25:21Z</time>
<desc>lat.=44.429726, lon.=34.105106, Alt.=78.950256m. Speed=4.608000m/h.</desc>
<speed>1.280000</speed>
</trkpt>
<trkpt lat="44.429798" lon="34.105129">
<ele>78.432678</ele>
<time>2011-10-13T16:25:26Z</time>
<desc>lat.=44.429798, lon.=34.105129, Alt.=78.432678m. Speed=4.824000m/h.</desc>
<speed>1.340000</speed>
</trkpt>
<trkpt lat="44.429859" lon="34.105141">
<ele>77.180725</ele>
<time>2011-10-13T16:25:31Z</time>
<desc>lat.=44.429859, lon.=34.105141, Alt.=77.180725m. Speed=4.500000m/h.</desc>
<speed>1.250000</speed>
</trkpt>
<trkpt lat="44.429932" lon="34.105145">
<ele>78.094788</ele>
<time>2011-10-13T16:25:36Z</time>
<desc>lat.=44.429932, lon.=34.105145, Alt.=78.094788m. Speed=4.392000m/h.</desc>
<speed>1.220000</speed>
</trkpt>
<trkpt lat="44.430008" lon="34.105156">
<ele>74.469788</ele>
<time>2011-10-13T16:25:41Z</time>
<desc>lat.=44.430008, lon.=34.105156, Alt.=74.469788m. Speed=5.328000m/h.</desc>
<speed>1.480000</speed>
</trkpt>
<trkpt lat="44.430065" lon="34.105160">
<ele>68.426819</ele>
<time>2011-10-13T16:25:46Z</time>
<desc>lat.=44.430065, lon.=34.105160, Alt.=68.426819m. Speed=3.420000m/h.</desc>
<speed>0.950000</speed>
</trkpt>
<trkpt lat="44.430103" lon="34.105122">
<ele>67.364319</ele>
<time>2011-10-13T16:25:51Z</time>
<desc>lat.=44.430103, lon.=34.105122, Alt.=67.364319m. Speed=5.040000m/h.</desc>
<speed>1.400000</speed>
</trkpt>
<trkpt lat="44.430149" lon="34.105072">
<ele>65.844788</ele>
<time>2011-10-13T16:25:56Z</time>
<desc>lat.=44.430149, lon.=34.105072, Alt.=65.844788m. Speed=4.284000m/h.</desc>
<speed>1.190000</speed>
</trkpt>
<trkpt lat="44.430180" lon="34.105011">
<ele>65.026428</ele>
<time>2011-10-13T16:26:01Z</time>
<desc>lat.=44.430180, lon.=34.105011, Alt.=65.026428m. Speed=3.600000m/h.</desc>
<speed>1.000000</speed>
</trkpt>
<trkpt lat="44.430225" lon="34.104958">
<ele>64.860413</ele>
<time>2011-10-13T16:26:06Z</time>
<desc>lat.=44.430225, lon.=34.104958, Alt.=64.860413m. Speed=4.464000m/h.</desc>
<speed>1.240000</speed>
</trkpt>
<trkpt lat="44.430286" lon="34.104900">
<ele>64.995178</ele>
<time>2011-10-13T16:26:11Z</time>
<desc>lat.=44.430286, lon.=34.104900, Alt.=64.995178m. Speed=6.120000m/h.</desc>
<speed>1.700000</speed>
</trkpt>
<trkpt lat="44.430351" lon="34.104847">
<ele>64.157288</ele>
<time>2011-10-13T16:26:16Z</time>
<desc>lat.=44.430351, lon.=34.104847, Alt.=64.157288m. Speed=4.032000m/h.</desc>
<speed>1.120000</speed>
</trkpt>
<trkpt lat="44.430428" lon="34.104828">
<ele>63.991730</ele>
<time>2011-10-13T16:26:21Z</time>
<desc>lat.=44.430428, lon.=34.104828, Alt.=63.991730m. Speed=4.464000m/h.</desc>
<speed>1.240000</speed>
</trkpt>
<trkpt lat="44.430485" lon="34.104851">
<ele>65.690491</ele>
<time>2011-10-13T16:26:26Z</time>
<desc>lat.=44.430485, lon.=34.104851, Alt.=65.690491m. Speed=4.860000m/h.</desc>
<speed>1.350000</speed>
</trkpt>
<trkpt lat="44.430534" lon="34.104874">
<ele>66.909241</ele>
<time>2011-10-13T16:26:31Z</time>
<desc>lat.=44.430534, lon.=34.104874, Alt.=66.909241m. Speed=3.816000m/h.</desc>
<speed>1.060000</speed>
</trkpt>
<trkpt lat="44.430580" lon="34.104919">
<ele>68.670959</ele>
<time>2011-10-13T16:26:36Z</time>
<desc>lat.=44.430580, lon.=34.104919, Alt.=68.670959m. Speed=4.860000m/h.</desc>
<speed>1.350000</speed>
</trkpt>
<trkpt lat="44.430622" lon="34.104984">
<ele>69.059631</ele>
<time>2011-10-13T16:26:41Z</time>
<desc>lat.=44.430622, lon.=34.104984, Alt.=69.059631m. Speed=5.076000m/h.</desc>
<speed>1.410000</speed>
</trkpt>
<trkpt lat="44.430645" lon="34.105045">
<ele>70.963928</ele>
<time>2011-10-13T16:26:46Z</time>
<desc>lat.=44.430645, lon.=34.105045, Alt.=70.963928m. Speed=4.464000m/h.</desc>
<speed>1.240000</speed>
</trkpt>
<trkpt lat="44.430660" lon="34.105103">
<ele>68.866272</ele>
<time>2011-10-13T16:26:51Z</time>
<desc>lat.=44.430660, lon.=34.105103, Alt.=68.866272m. Speed=0.756000m/h.</desc>
<speed>0.210000</speed>
</trkpt>
<trkpt lat="44.430656" lon="34.105106">
<ele>68.184631</ele>
<time>2011-10-13T16:26:56Z</time>
<desc>lat.=44.430656, lon.=34.105106, Alt.=68.184631m. Speed=0.504000m/h.</desc>
<speed>0.140000</speed>
</trkpt>
<trkpt lat="44.430679" lon="34.105167">
<ele>67.040100</ele>
<time>2011-10-13T16:27:01Z</time>
<desc>lat.=44.430679, lon.=34.105167, Alt.=67.040100m. Speed=3.240000m/h.</desc>
<speed>0.900000</speed>
</trkpt>
<trkpt lat="44.430702" lon="34.105236">
<ele>66.981506</ele>
<time>2011-10-13T16:27:06Z</time>
<desc>lat.=44.430702, lon.=34.105236, Alt.=66.981506m. Speed=3.204000m/h.</desc>
<speed>0.890000</speed>
</trkpt>
<trkpt lat="44.430744" lon="34.105362">
<ele>65.778381</ele>
<time>2011-10-13T16:27:11Z</time>
<desc>lat.=44.430744, lon.=34.105362, Alt.=65.778381m. Speed=5.112000m/h.</desc>
<speed>1.420000</speed>
</trkpt>
<trkpt lat="44.430767" lon="34.105427">
<ele>67.491272</ele>
<time>2011-10-13T16:27:16Z</time>
<desc>lat.=44.430767, lon.=34.105427, Alt.=67.491272m. Speed=2.556000m/h.</desc>
<speed>0.710000</speed>
</trkpt>
<trkpt lat="44.430775" lon="34.105484">
<ele>68.917053</ele>
<time>2011-10-13T16:27:21Z</time>
<desc>lat.=44.430775, lon.=34.105484, Alt.=68.917053m. Speed=3.060000m/h.</desc>
<speed>0.850000</speed>
</trkpt>
<trkpt lat="44.430820" lon="34.105495">
<ele>70.155334</ele>
<time>2011-10-13T16:27:26Z</time>
<desc>lat.=44.430820, lon.=34.105495, Alt.=70.155334m. Speed=1.980000m/h.</desc>
<speed>0.550000</speed>
</trkpt>
<trkpt lat="44.430862" lon="34.105511">
<ele>71.428772</ele>
<time>2011-10-13T16:27:31Z</time>
<desc>lat.=44.430862, lon.=34.105511, Alt.=71.428772m. Speed=2.232000m/h.</desc>
<speed>0.620000</speed>
</trkpt>
<trkpt lat="44.430904" lon="34.105499">
<ele>72.788147</ele>
<time>2011-10-13T16:27:36Z</time>
<desc>lat.=44.430904, lon.=34.105499, Alt.=72.788147m. Speed=2.232000m/h.</desc>
<speed>0.620000</speed>
</trkpt>
<trkpt lat="44.430943" lon="34.105469">
<ele>74.235413</ele>
<time>2011-10-13T16:27:41Z</time>
<desc>lat.=44.430943, lon.=34.105469, Alt.=74.235413m. Speed=2.340000m/h.</desc>
<speed>0.650000</speed>
</trkpt>
<trkpt lat="44.430969" lon="34.105446">
<ele>75.711975</ele>
<time>2011-10-13T16:27:46Z</time>
<desc>lat.=44.430969, lon.=34.105446, Alt.=75.711975m. Speed=2.592000m/h.</desc>
<speed>0.720000</speed>
</trkpt>
<trkpt lat="44.431007" lon="34.105427">
<ele>77.086975</ele>
<time>2011-10-13T16:27:51Z</time>
<desc>lat.=44.431007, lon.=34.105427, Alt.=77.086975m. Speed=2.304000m/h.</desc>
<speed>0.640000</speed>
</trkpt>
<trkpt lat="44.431034" lon="34.105419">
<ele>78.442444</ele>
<time>2011-10-13T16:27:56Z</time>
<desc>lat.=44.431034, lon.=34.105419, Alt.=78.442444m. Speed=1.872000m/h.</desc>
<speed>0.520000</speed>
</trkpt>
<trkpt lat="44.431026" lon="34.105412">
<ele>78.651428</ele>
<time>2011-10-13T16:28:01Z</time>
<desc>lat.=44.431026, lon.=34.105412, Alt.=78.651428m. Speed=1.692000m/h.</desc>
<speed>0.470000</speed>
</trkpt>
<trkpt lat="44.431019" lon="34.105389">
<ele>79.170959</ele>
<time>2011-10-13T16:28:06Z</time>
<desc>lat.=44.431019, lon.=34.105389, Alt.=79.170959m. Speed=1.260000m/h.</desc>
<speed>0.350000</speed>
</trkpt>
<trkpt lat="44.430988" lon="34.105389">
<ele>79.956116</ele>
<time>2011-10-13T16:28:11Z</time>
<desc>lat.=44.430988, lon.=34.105389, Alt.=79.956116m. Speed=1.296000m/h.</desc>
<speed>0.360000</speed>
</trkpt>
<trkpt lat="44.430965" lon="34.105408">
<ele>80.280334</ele>
<time>2011-10-13T16:28:16Z</time>
<desc>lat.=44.430965, lon.=34.105408, Alt.=80.280334m. Speed=0.972000m/h.</desc>
<speed>0.270000</speed>
</trkpt>
<trkpt lat="44.430962" lon="34.105412">
<ele>80.797913</ele>
<time>2011-10-13T16:28:21Z</time>
<desc>lat.=44.430962, lon.=34.105412, Alt.=80.797913m. Speed=0.288000m/h.</desc>
<speed>0.080000</speed>
</trkpt>
<trkpt lat="44.430958" lon="34.105404">
<ele>81.292053</ele>
<time>2011-10-13T16:28:26Z</time>
<desc>lat.=44.430958, lon.=34.105404, Alt.=81.292053m. Speed=0.468000m/h.</desc>
<speed>0.130000</speed>
</trkpt>
<trkpt lat="44.430958" lon="34.105396">
<ele>81.823303</ele>
<time>2011-10-13T16:28:31Z</time>
<desc>lat.=44.430958, lon.=34.105396, Alt.=81.823303m. Speed=0.360000m/h.</desc>
<speed>0.100000</speed>
</trkpt>
<trkpt lat="44.430958" lon="34.105389">
<ele>82.340881</ele>
<time>2011-10-13T16:28:36Z</time>
<desc>lat.=44.430958, lon.=34.105389, Alt.=82.340881m. Speed=0.036000m/h.</desc>
<speed>0.010000</speed>
</trkpt>
<trkpt lat="44.430958" lon="34.105385">
<ele>82.659241</ele>
<time>2011-10-13T16:28:41Z</time>
<desc>lat.=44.430958, lon.=34.105385, Alt.=82.659241m. Speed=0.288000m/h.</desc>
<speed>0.080000</speed>
</trkpt>
<trkpt lat="44.430958" lon="34.105381">
<ele>82.967834</ele>
<time>2011-10-13T16:28:46Z</time>
<desc>lat.=44.430958, lon.=34.105381, Alt.=82.967834m. Speed=0.072000m/h.</desc>
<speed>0.020000</speed>
</trkpt>
<trkpt lat="44.430954" lon="34.105381">
<ele>83.200256</ele>
<time>2011-10-13T16:28:51Z</time>
<desc>lat.=44.430954, lon.=34.105381, Alt.=83.200256m. Speed=0.036000m/h.</desc>
<speed>0.010000</speed>
</trkpt>
<trkpt lat="44.430954" lon="34.105381">
<ele>83.364319</ele>
<time>2011-10-13T16:28:56Z</time>
<desc>lat.=44.430954, lon.=34.105381, Alt.=83.364319m. Speed=0.000000m/h.</desc>
<speed>0.000000</speed>
</trkpt>
<trkpt lat="44.430954" lon="34.105377">
<ele>83.512756</ele>
<time>2011-10-13T16:29:01Z</time>
<desc>lat.=44.430954, lon.=34.105377, Alt.=83.512756m. Speed=0.180000m/h.</desc>
<speed>0.050000</speed>
</trkpt>
<trkpt lat="44.430954" lon="34.105373">
<ele>83.669006</ele>
<time>2011-10-13T16:29:06Z</time>
<desc>lat.=44.430954, lon.=34.105373, Alt.=83.669006m. Speed=0.144000m/h.</desc>
<speed>0.040000</speed>
</trkpt>
<trkpt lat="44.430954" lon="34.105370">
<ele>83.835022</ele>
<time>2011-10-13T16:29:11Z</time>
<desc>lat.=44.430954, lon.=34.105370, Alt.=83.835022m. Speed=0.360000m/h.</desc>
<speed>0.100000</speed>
</trkpt>
<trkpt lat="44.430954" lon="34.105370">
<ele>84.001038</ele>
<time>2011-10-13T16:29:16Z</time>
<desc>lat.=44.430954, lon.=34.105370, Alt.=84.001038m. Speed=0.072000m/h.</desc>
<speed>0.020000</speed>
</trkpt>
<trkpt lat="44.430954" lon="34.105366">
<ele>84.159241</ele>
<time>2011-10-13T16:29:21Z</time>
<desc>lat.=44.430954, lon.=34.105366, Alt.=84.159241m. Speed=0.036000m/h.</desc>
<speed>0.010000</speed>
</trkpt>
<trkpt lat="44.430954" lon="34.105366">
<ele>84.317444</ele>
<time>2011-10-13T16:29:26Z</time>
<desc>lat.=44.430954, lon.=34.105366, Alt.=84.317444m. Speed=0.144000m/h.</desc>
<speed>0.040000</speed>
</trkpt>
<trkpt lat="44.430954" lon="34.105358">
<ele>84.477600</ele>
<time>2011-10-13T16:29:31Z</time>
<desc>lat.=44.430954, lon.=34.105358, Alt.=84.477600m. Speed=0.324000m/h.</desc>
<speed>0.090000</speed>
</trkpt>
<trkpt lat="44.430954" lon="34.105354">
<ele>84.641663</ele>
<time>2011-10-13T16:29:36Z</time>
<desc>lat.=44.430954, lon.=34.105354, Alt.=84.641663m. Speed=0.000000m/h.</desc>
<speed>0.000000</speed>
</trkpt>
<trkpt lat="44.430954" lon="34.105354">
<ele>84.811584</ele>
<time>2011-10-13T16:29:41Z</time>
<desc>lat.=44.430954, lon.=34.105354, Alt.=84.811584m. Speed=0.000000m/h.</desc>
<speed>0.000000</speed>
</trkpt>
<trkpt lat="44.430954" lon="34.105354">
<ele>84.995178</ele>
<time>2011-10-13T16:29:46Z</time>
<desc>lat.=44.430954, lon.=34.105354, Alt.=84.995178m. Speed=0.000000m/h.</desc>
<speed>0.000000</speed>
</trkpt>
<trkpt lat="44.430954" lon="34.105354">
<ele>85.194397</ele>
<time>2011-10-13T16:29:51Z</time>
<desc>lat.=44.430954, lon.=34.105354, Alt.=85.194397m. Speed=0.036000m/h.</desc>
<speed>0.010000</speed>
</trkpt>
<trkpt lat="44.430954" lon="34.105354">
<ele>85.391663</ele>
<time>2011-10-13T16:29:56Z</time>
<desc>lat.=44.430954, lon.=34.105354, Alt.=85.391663m. Speed=0.000000m/h.</desc>
<speed>0.000000</speed>
</trkpt>
<trkpt lat="44.430954" lon="34.105354">
<ele>85.590881</ele>
<time>2011-10-13T16:30:01Z</time>
<desc>lat.=44.430954, lon.=34.105354, Alt.=85.590881m. Speed=0.036000m/h.</desc>
<speed>0.010000</speed>
</trkpt>
<trkpt lat="44.430954" lon="34.105354">
<ele>85.794006</ele>
<time>2011-10-13T16:30:06Z</time>
<desc>lat.=44.430954, lon.=34.105354, Alt.=85.794006m. Speed=0.000000m/h.</desc>
<speed>0.000000</speed>
</trkpt>
<trkpt lat="44.430950" lon="34.105350">
<ele>85.991272</ele>
<time>2011-10-13T16:30:11Z</time>
<desc>lat.=44.430950, lon.=34.105350, Alt.=85.991272m. Speed=0.036000m/h.</desc>
<speed>0.010000</speed>
</trkpt>
<trkpt lat="44.430950" lon="34.105350">
<ele>86.182678</ele>
<time>2011-10-13T16:30:16Z</time>
<desc>lat.=44.430950, lon.=34.105350, Alt.=86.182678m. Speed=0.000000m/h.</desc>
<speed>0.000000</speed>
</trkpt>
<trkpt lat="44.430950" lon="34.105350">
<ele>86.366272</ele>
<time>2011-10-13T16:30:21Z</time>
<desc>lat.=44.430950, lon.=34.105350, Alt.=86.366272m. Speed=0.072000m/h.</desc>
<speed>0.020000</speed>
</trkpt>
<trkpt lat="44.430950" lon="34.105354">
<ele>86.544006</ele>
<time>2011-10-13T16:30:26Z</time>
<desc>lat.=44.430950, lon.=34.105354, Alt.=86.544006m. Speed=0.000000m/h.</desc>
<speed>0.000000</speed>
</trkpt>
<trkpt lat="44.430950" lon="34.105354">
<ele>86.721741</ele>
<time>2011-10-13T16:30:31Z</time>
<desc>lat.=44.430950, lon.=34.105354, Alt.=86.721741m. Speed=0.180000m/h.</desc>
<speed>0.050000</speed>
</trkpt>
<trkpt lat="44.430950" lon="34.105358">
<ele>86.901428</ele>
<time>2011-10-13T16:30:36Z</time>
<desc>lat.=44.430950, lon.=34.105358, Alt.=86.901428m. Speed=0.036000m/h.</desc>
<speed>0.010000</speed>
</trkpt>
<trkpt lat="44.430950" lon="34.105358">
<ele>87.085022</ele>
<time>2011-10-13T16:30:41Z</time>
<desc>lat.=44.430950, lon.=34.105358, Alt.=87.085022m. Speed=0.000000m/h.</desc>
<speed>0.000000</speed>
</trkpt>
<trkpt lat="44.430950" lon="34.105354">
<ele>87.278381</ele>
<time>2011-10-13T16:30:46Z</time>
<desc>lat.=44.430950, lon.=34.105354, Alt.=87.278381m. Speed=0.036000m/h.</desc>
<speed>0.010000</speed>
</trkpt>
<trkpt lat="44.430946" lon="34.105354">
<ele>87.477600</ele>
<time>2011-10-13T16:30:51Z</time>
<desc>lat.=44.430946, lon.=34.105354, Alt.=87.477600m. Speed=0.072000m/h.</desc>
<speed>0.020000</speed>
</trkpt>
<trkpt lat="44.430946" lon="34.105350">
<ele>87.678772</ele>
<time>2011-10-13T16:30:56Z</time>
<desc>lat.=44.430946, lon.=34.105350, Alt.=87.678772m. Speed=0.144000m/h.</desc>
<speed>0.040000</speed>
</trkpt>
<trkpt lat="44.430946" lon="34.105347">
<ele>87.883850</ele>
<time>2011-10-13T16:31:01Z</time>
<desc>lat.=44.430946, lon.=34.105347, Alt.=87.883850m. Speed=0.288000m/h.</desc>
<speed>0.080000</speed>
</trkpt>
<trkpt lat="44.430950" lon="34.105339">
<ele>88.094788</ele>
<time>2011-10-13T16:31:06Z</time>
<desc>lat.=44.430950, lon.=34.105339, Alt.=88.094788m. Speed=0.468000m/h.</desc>
<speed>0.130000</speed>
</trkpt>
<trkpt lat="44.430950" lon="34.105331">
<ele>88.309631</ele>
<time>2011-10-13T16:31:11Z</time>
<desc>lat.=44.430950, lon.=34.105331, Alt.=88.309631m. Speed=0.360000m/h.</desc>
<speed>0.100000</speed>
</trkpt>
<trkpt lat="44.430950" lon="34.105331">
<ele>88.522522</ele>
<time>2011-10-13T16:31:16Z</time>
<desc>lat.=44.430950, lon.=34.105331, Alt.=88.522522m. Speed=0.036000m/h.</desc>
<speed>0.010000</speed>
</trkpt>
<trkpt lat="44.430946" lon="34.105331">
<ele>88.741272</ele>
<time>2011-10-13T16:31:21Z</time>
<desc>lat.=44.430946, lon.=34.105331, Alt.=88.741272m. Speed=0.000000m/h.</desc>
<speed>0.000000</speed>
</trkpt>
<trkpt lat="44.430946" lon="34.105331">
<ele>88.961975</ele>
<time>2011-10-13T16:31:26Z</time>
<desc>lat.=44.430946, lon.=34.105331, Alt.=88.961975m. Speed=0.360000m/h.</desc>
<speed>0.100000</speed>
</trkpt>
<trkpt lat="44.430946" lon="34.105328">
<ele>89.184631</ele>
<time>2011-10-13T16:31:31Z</time>
<desc>lat.=44.430946, lon.=34.105328, Alt.=89.184631m. Speed=0.252000m/h.</desc>
<speed>0.070000</speed>
</trkpt>
<trkpt lat="44.430946" lon="34.105328">
<ele>89.403381</ele>
<time>2011-10-13T16:31:36Z</time>
<desc>lat.=44.430946, lon.=34.105328, Alt.=89.403381m. Speed=0.144000m/h.</desc>
<speed>0.040000</speed>
</trkpt>
<trkpt lat="44.430946" lon="34.105335">
<ele>89.612366</ele>
<time>2011-10-13T16:31:41Z</time>
<desc>lat.=44.430946, lon.=34.105335, Alt.=89.612366m. Speed=0.360000m/h.</desc>
<speed>0.100000</speed>
</trkpt>
<trkpt lat="44.430943" lon="34.105343">
<ele>89.813538</ele>
<time>2011-10-13T16:31:46Z</time>
<desc>lat.=44.430943, lon.=34.105343, Alt.=89.813538m. Speed=0.792000m/h.</desc>
<speed>0.220000</speed>
</trkpt>
<trkpt lat="44.430943" lon="34.105358">
<ele>90.006897</ele>
<time>2011-10-13T16:31:51Z</time>
<desc>lat.=44.430943, lon.=34.105358, Alt.=90.006897m. Speed=0.936000m/h.</desc>
<speed>0.260000</speed>
</trkpt>
<trkpt lat="44.430939" lon="34.105370">
<ele>90.202209</ele>
<time>2011-10-13T16:31:56Z</time>
<desc>lat.=44.430939, lon.=34.105370, Alt.=90.202209m. Speed=0.540000m/h.</desc>
<speed>0.150000</speed>
</trkpt>
<trkpt lat="44.430939" lon="34.105381">
<ele>90.393616</ele>
<time>2011-10-13T16:32:01Z</time>
<desc>lat.=44.430939, lon.=34.105381, Alt.=90.393616m. Speed=0.612000m/h.</desc>
<speed>0.170000</speed>
</trkpt>
<trkpt lat="44.430935" lon="34.105389">
<ele>90.585022</ele>
<time>2011-10-13T16:32:06Z</time>
<desc>lat.=44.430935, lon.=34.105389, Alt.=90.585022m. Speed=0.324000m/h.</desc>
<speed>0.090000</speed>
</trkpt>
<trkpt lat="44.430935" lon="34.105392">
<ele>90.776428</ele>
<time>2011-10-13T16:32:11Z</time>
<desc>lat.=44.430935, lon.=34.105392, Alt.=90.776428m. Speed=0.216000m/h.</desc>
<speed>0.060000</speed>
</trkpt>
<trkpt lat="44.430935" lon="34.105396">
<ele>90.967834</ele>
<time>2011-10-13T16:32:16Z</time>
<desc>lat.=44.430935, lon.=34.105396, Alt.=90.967834m. Speed=0.108000m/h.</desc>
<speed>0.030000</speed>
</trkpt>
<trkpt lat="44.430935" lon="34.105396">
<ele>91.157288</ele>
<time>2011-10-13T16:32:21Z</time>
<desc>lat.=44.430935, lon.=34.105396, Alt.=91.157288m. Speed=0.000000m/h.</desc>
<speed>0.000000</speed>
</trkpt>
<trkpt lat="44.430935" lon="34.105392">
<ele>91.348694</ele>
<time>2011-10-13T16:32:26Z</time>
<desc>lat.=44.430935, lon.=34.105392, Alt.=91.348694m. Speed=0.324000m/h.</desc>
<speed>0.090000</speed>
</trkpt>
<trkpt lat="44.430935" lon="34.105389">
<ele>91.544006</ele>
<time>2011-10-13T16:32:31Z</time>
<desc>lat.=44.430935, lon.=34.105389, Alt.=91.544006m. Speed=0.144000m/h.</desc>
<speed>0.040000</speed>
</trkpt>
<trkpt lat="44.430935" lon="34.105389">
<ele>91.733459</ele>
<time>2011-10-13T16:32:36Z</time>
<desc>lat.=44.430935, lon.=34.105389, Alt.=91.733459m. Speed=0.072000m/h.</desc>
<speed>0.020000</speed>
</trkpt>
<trkpt lat="44.430935" lon="34.105389">
<ele>91.922913</ele>
<time>2011-10-13T16:32:41Z</time>
<desc>lat.=44.430935, lon.=34.105389, Alt.=91.922913m. Speed=0.324000m/h.</desc>
<speed>0.090000</speed>
</trkpt>
<trkpt lat="44.430935" lon="34.105381">
<ele>92.118225</ele>
<time>2011-10-13T16:32:46Z</time>
<desc>lat.=44.430935, lon.=34.105381, Alt.=92.118225m. Speed=0.432000m/h.</desc>
<speed>0.120000</speed>
</trkpt>
<trkpt lat="44.430935" lon="34.105373">
<ele>92.313538</ele>
<time>2011-10-13T16:32:51Z</time>
<desc>lat.=44.430935, lon.=34.105373, Alt.=92.313538m. Speed=0.180000m/h.</desc>
<speed>0.050000</speed>
</trkpt>
<trkpt lat="44.430935" lon="34.105370">
<ele>92.510803</ele>
<time>2011-10-13T16:32:56Z</time>
<desc>lat.=44.430935, lon.=34.105370, Alt.=92.510803m. Speed=0.288000m/h.</desc>
<speed>0.080000</speed>
</trkpt>
<trkpt lat="44.430935" lon="34.105366">
<ele>92.711975</ele>
<time>2011-10-13T16:33:01Z</time>
<desc>lat.=44.430935, lon.=34.105366, Alt.=92.711975m. Speed=0.144000m/h.</desc>
<speed>0.040000</speed>
</trkpt>
<trkpt lat="44.430935" lon="34.105358">
<ele>92.913147</ele>
<time>2011-10-13T16:33:06Z</time>
<desc>lat.=44.430935, lon.=34.105358, Alt.=92.913147m. Speed=0.684000m/h.</desc>
<speed>0.190000</speed>
</trkpt>
<trkpt lat="44.430935" lon="34.105347">
<ele>93.124084</ele>
<time>2011-10-13T16:33:11Z</time>
<desc>lat.=44.430935, lon.=34.105347, Alt.=93.124084m. Speed=0.828000m/h.</desc>
<speed>0.230000</speed>
</trkpt>
<trkpt lat="44.430939" lon="34.105335">
<ele>93.338928</ele>
<time>2011-10-13T16:33:16Z</time>
<desc>lat.=44.430939, lon.=34.105335, Alt.=93.338928m. Speed=0.468000m/h.</desc>
<speed>0.130000</speed>
</trkpt>
<trkpt lat="44.430939" lon="34.105328">
<ele>93.557678</ele>
<time>2011-10-13T16:33:21Z</time>
<desc>lat.=44.430939, lon.=34.105328, Alt.=93.557678m. Speed=0.432000m/h.</desc>
<speed>0.120000</speed>
</trkpt>
<trkpt lat="44.430935" lon="34.105320">
<ele>93.776428</ele>
<time>2011-10-13T16:33:26Z</time>
<desc>lat.=44.430935, lon.=34.105320, Alt.=93.776428m. Speed=0.684000m/h.</desc>
<speed>0.190000</speed>
</trkpt>
<trkpt lat="44.430931" lon="34.105320">
<ele>93.965881</ele>
<time>2011-10-13T16:33:31Z</time>
<desc>lat.=44.430931, lon.=34.105320, Alt.=93.965881m. Speed=3.996000m/h.</desc>
<speed>1.110000</speed>
</trkpt>
<trkpt lat="44.430950" lon="34.105446">
<ele>89.063538</ele>
<time>2011-10-13T16:33:36Z</time>
<desc>lat.=44.430950, lon.=34.105446, Alt.=89.063538m. Speed=4.068000m/h.</desc>
<speed>1.130000</speed>
</trkpt>
<trkpt lat="44.430965" lon="34.105526">
<ele>88.713928</ele>
<time>2011-10-13T16:33:41Z</time>
<desc>lat.=44.430965, lon.=34.105526, Alt.=88.713928m. Speed=3.960000m/h.</desc>
<speed>1.100000</speed>
</trkpt>
<trkpt lat="44.430939" lon="34.105598">
<ele>88.270569</ele>
<time>2011-10-13T16:33:46Z</time>
<desc>lat.=44.430939, lon.=34.105598, Alt.=88.270569m. Speed=4.248000m/h.</desc>
<speed>1.180000</speed>
</trkpt>
<trkpt lat="44.430954" lon="34.105667">
<ele>85.612366</ele>
<time>2011-10-13T16:33:51Z</time>
<desc>lat.=44.430954, lon.=34.105667, Alt.=85.612366m. Speed=4.716000m/h.</desc>
<speed>1.310000</speed>
</trkpt>
<trkpt lat="44.430977" lon="34.105682">
<ele>85.495178</ele>
<time>2011-10-13T16:33:56Z</time>
<desc>lat.=44.430977, lon.=34.105682, Alt.=85.495178m. Speed=1.548000m/h.</desc>
<speed>0.430000</speed>
</trkpt>
<trkpt lat="44.430992" lon="34.105671">
<ele>85.846741</ele>
<time>2011-10-13T16:34:01Z</time>
<desc>lat.=44.430992, lon.=34.105671, Alt.=85.846741m. Speed=1.368000m/h.</desc>
<speed>0.380000</speed>
</trkpt>
<trkpt lat="44.431011" lon="34.105659">
<ele>86.389709</ele>
<time>2011-10-13T16:34:06Z</time>
<desc>lat.=44.431011, lon.=34.105659, Alt.=86.389709m. Speed=1.116000m/h.</desc>
<speed>0.310000</speed>
</trkpt>
<trkpt lat="44.431019" lon="34.105659">
<ele>87.022522</ele>
<time>2011-10-13T16:34:11Z</time>
<desc>lat.=44.431019, lon.=34.105659, Alt.=87.022522m. Speed=0.540000m/h.</desc>
<speed>0.150000</speed>
</trkpt>
<trkpt lat="44.431023" lon="34.105652">
<ele>87.629944</ele>
<time>2011-10-13T16:34:16Z</time>
<desc>lat.=44.431023, lon.=34.105652, Alt.=87.629944m. Speed=0.144000m/h.</desc>
<speed>0.040000</speed>
</trkpt>
<trkpt lat="44.431023" lon="34.105652">
<ele>88.241272</ele>
<time>2011-10-13T16:34:21Z</time>
<desc>lat.=44.431023, lon.=34.105652, Alt.=88.241272m. Speed=0.108000m/h.</desc>
<speed>0.030000</speed>
</trkpt>
</trkseg>
</trk>
</gpx>